<?xml version="1.0" encoding="utf-8"?>
<gpx xmlns:xsi="http://www.w3.org/2001/XMLSchema-instance" xmlns:xsd="http://www.w3.org/2001/XMLSchema" version="1.1" creator="Shapelink.com" xmlns="http://www.topografix.com/GPX/1/1" xmlns:gpxtpx="http://www.garmin.com/xmlschemas/TrackPointExtension/v1">
  <metadata>
    <name>Løping 2.41 km, 2015-06-08</name>
    <desc></desc>
    <author><name>Mikael D</name></author> 
    <time>2015-06-08T21:21:18Z</time>
  </metadata>
  <trk>
    <name>Løping 2.41 km, 2015-06-08</name>
    <trkseg>
      <trkpt lat="57.656060126969" lon="14.670412763652">
        <ele>324.8</ele>
        <time>2015-06-08T21:21:18Z</time>
      </trkpt>
      <trkpt lat="57.656042944074" lon="14.670389378151">
        <ele>324.6</ele>
        <time>2015-06-08T21:21:20Z</time>
      </trkpt>
      <trkpt lat="57.656026431731" lon="14.670366495564">
        <ele>324.4</ele>
        <time>2015-06-08T21:21:21Z</time>
      </trkpt>
      <trkpt lat="57.656009416474" lon="14.670337326552">
        <ele>324.6</ele>
        <time>2015-06-08T21:21:22Z</time>
      </trkpt>
      <trkpt lat="57.655999777289" lon="14.670321484761">
        <ele>324.6</ele>
        <time>2015-06-08T21:21:23Z</time>
      </trkpt>
      <trkpt lat="57.655975553598" lon="14.670280078175">
        <ele>324.8</ele>
        <time>2015-06-08T21:21:24Z</time>
      </trkpt>
      <trkpt lat="57.655958873617" lon="14.670252501724">
        <ele>325</ele>
        <time>2015-06-08T21:21:25Z</time>
      </trkpt>
      <trkpt lat="57.655941690722" lon="14.670222745979">
        <ele>324.8</ele>
        <time>2015-06-08T21:21:26Z</time>
      </trkpt>
      <trkpt lat="57.655923669637" lon="14.67019332551">
        <ele>325</ele>
        <time>2015-06-08T21:21:27Z</time>
      </trkpt>
      <trkpt lat="57.655909671864" lon="14.670174969149">
        <ele>325</ele>
        <time>2015-06-08T21:21:28Z</time>
      </trkpt>
      <trkpt lat="57.655891147865" lon="14.670144459033">
        <ele>325.2</ele>
        <time>2015-06-08T21:21:29Z</time>
      </trkpt>
      <trkpt lat="57.655871785676" lon="14.670112691632">
        <ele>325.2</ele>
        <time>2015-06-08T21:21:30Z</time>
      </trkpt>
      <trkpt lat="57.655853932229" lon="14.670086540104">
        <ele>325</ele>
        <time>2015-06-08T21:21:31Z</time>
      </trkpt>
      <trkpt lat="57.655837419886" lon="14.670059550386">
        <ele>325</ele>
        <time>2015-06-08T21:21:32Z</time>
      </trkpt>
      <trkpt lat="57.655821661914" lon="14.670038344179">
        <ele>325</ele>
        <time>2015-06-08T21:21:33Z</time>
      </trkpt>
      <trkpt lat="57.655802635001" lon="14.670002972561">
        <ele>324.8</ele>
        <time>2015-06-08T21:21:34Z</time>
      </trkpt>
      <trkpt lat="57.655787715219" lon="14.669977575404">
        <ele>324.8</ele>
        <time>2015-06-08T21:21:35Z</time>
      </trkpt>
      <trkpt lat="57.655770113229" lon="14.669945556546">
        <ele>324.6</ele>
        <time>2015-06-08T21:21:36Z</time>
      </trkpt>
      <trkpt lat="57.655752175963" lon="14.669912280403">
        <ele>324.6</ele>
        <time>2015-06-08T21:21:37Z</time>
      </trkpt>
      <trkpt lat="57.65573398724" lon="14.669886799427">
        <ele>324.6</ele>
        <time>2015-06-08T21:21:38Z</time>
      </trkpt>
      <trkpt lat="57.655714205956" lon="14.669852936551">
        <ele>324.4</ele>
        <time>2015-06-08T21:21:39Z</time>
      </trkpt>
      <trkpt lat="57.655694759948" lon="14.669825276281">
        <ele>324.4</ele>
        <time>2015-06-08T21:21:40Z</time>
      </trkpt>
      <trkpt lat="57.655680929813" lon="14.669806165549">
        <ele>324.2</ele>
        <time>2015-06-08T21:21:41Z</time>
      </trkpt>
      <trkpt lat="57.655654945923" lon="14.669770542474">
        <ele>324.2</ele>
        <time>2015-06-08T21:21:42Z</time>
      </trkpt>
      <trkpt lat="57.655636170467" lon="14.669745229136">
        <ele>324.2</ele>
        <time>2015-06-08T21:21:43Z</time>
      </trkpt>
      <trkpt lat="57.655619490486" lon="14.669711030984">
        <ele>324</ele>
        <time>2015-06-08T21:21:44Z</time>
      </trkpt>
      <trkpt lat="57.655604235428" lon="14.669691082062">
        <ele>323.6</ele>
        <time>2015-06-08T21:21:45Z</time>
      </trkpt>
      <trkpt lat="57.655592165492" lon="14.669724274386">
        <ele>323.6</ele>
        <time>2015-06-08T21:21:46Z</time>
      </trkpt>
      <trkpt lat="57.655578586814" lon="14.669747492249">
        <ele>323.4</ele>
        <time>2015-06-08T21:21:47Z</time>
      </trkpt>
      <trkpt lat="57.655556961512" lon="14.66978764155">
        <ele>323.4</ele>
        <time>2015-06-08T21:21:48Z</time>
      </trkpt>
      <trkpt lat="57.655539443341" lon="14.66982368372">
        <ele>323.4</ele>
        <time>2015-06-08T21:21:49Z</time>
      </trkpt>
      <trkpt lat="57.655519662057" lon="14.669857043682">
        <ele>323.2</ele>
        <time>2015-06-08T21:21:50Z</time>
      </trkpt>
      <trkpt lat="57.655504993732" lon="14.669887134703">
        <ele>323.2</ele>
        <time>2015-06-08T21:21:51Z</time>
      </trkpt>
      <trkpt lat="57.655488229932" lon="14.669928876565">
        <ele>323.2</ele>
        <time>2015-06-08T21:21:52Z</time>
      </trkpt>
      <trkpt lat="57.65547163377" lon="14.669968020038">
        <ele>323.4</ele>
        <time>2015-06-08T21:21:53Z</time>
      </trkpt>
      <trkpt lat="57.655459144739" lon="14.669972965359">
        <ele>322.6</ele>
        <time>2015-06-08T21:21:54Z</time>
      </trkpt>
      <trkpt lat="57.655427461157" lon="14.670009594262">
        <ele>322.4</ele>
        <time>2015-06-08T21:21:55Z</time>
      </trkpt>
      <trkpt lat="57.655405332941" lon="14.670023424397">
        <ele>322.2</ele>
        <time>2015-06-08T21:21:56Z</time>
      </trkpt>
      <trkpt lat="57.655376499205" lon="14.670030213736">
        <ele>322</ele>
        <time>2015-06-08T21:21:57Z</time>
      </trkpt>
      <trkpt lat="57.655355041541" lon="14.670014455764">
        <ele>322</ele>
        <time>2015-06-08T21:21:58Z</time>
      </trkpt>
      <trkpt lat="57.655329476746" lon="14.669989310064">
        <ele>321.6</ele>
        <time>2015-06-08T21:21:59Z</time>
      </trkpt>
      <trkpt lat="57.655301984114" lon="14.669958297034">
        <ele>321.6</ele>
        <time>2015-06-08T21:22:00Z</time>
      </trkpt>
      <trkpt lat="57.655278933889" lon="14.669936923189">
        <ele>321.8</ele>
        <time>2015-06-08T21:22:01Z</time>
      </trkpt>
      <trkpt lat="57.655254626379" lon="14.669909598195">
        <ele>322.2</ele>
        <time>2015-06-08T21:22:02Z</time>
      </trkpt>
      <trkpt lat="57.655238030217" lon="14.669880596821">
        <ele>322</ele>
        <time>2015-06-08T21:22:03Z</time>
      </trkpt>
      <trkpt lat="57.655213638888" lon="14.669853188008">
        <ele>322.4</ele>
        <time>2015-06-08T21:22:04Z</time>
      </trkpt>
      <trkpt lat="57.655190588663" lon="14.669826952661">
        <ele>322.6</ele>
        <time>2015-06-08T21:22:05Z</time>
      </trkpt>
      <trkpt lat="57.655169382456" lon="14.669796526364">
        <ele>322.4</ele>
        <time>2015-06-08T21:22:06Z</time>
      </trkpt>
      <trkpt lat="57.655145913136" lon="14.669762412031">
        <ele>322.4</ele>
        <time>2015-06-08T21:22:07Z</time>
      </trkpt>
      <trkpt lat="57.655124287834" lon="14.669737182512">
        <ele>322</ele>
        <time>2015-06-08T21:22:08Z</time>
      </trkpt>
      <trkpt lat="57.655104255093" lon="14.669706001844">
        <ele>322</ele>
        <time>2015-06-08T21:22:09Z</time>
      </trkpt>
      <trkpt lat="57.655078355022" lon="14.669669121484">
        <ele>322.6</ele>
        <time>2015-06-08T21:22:10Z</time>
      </trkpt>
      <trkpt lat="57.655058992833" lon="14.669642215585">
        <ele>322.6</ele>
        <time>2015-06-08T21:22:11Z</time>
      </trkpt>
      <trkpt lat="57.655034852961" lon="14.669605586682">
        <ele>322.8</ele>
        <time>2015-06-08T21:22:12Z</time>
      </trkpt>
      <trkpt lat="57.655015071677" lon="14.669579183697">
        <ele>323</ele>
        <time>2015-06-08T21:22:13Z</time>
      </trkpt>
      <trkpt lat="57.654993362556" lon="14.669549260314">
        <ele>323.4</ele>
        <time>2015-06-08T21:22:14Z</time>
      </trkpt>
      <trkpt lat="57.654969977055" lon="14.669515062162">
        <ele>323.4</ele>
        <time>2015-06-08T21:22:15Z</time>
      </trkpt>
      <trkpt lat="57.654950614866" lon="14.66949092229">
        <ele>323.4</ele>
        <time>2015-06-08T21:22:16Z</time>
      </trkpt>
      <trkpt lat="57.654928570469" lon="14.669455383034">
        <ele>323.4</ele>
        <time>2015-06-08T21:22:17Z</time>
      </trkpt>
      <trkpt lat="57.654908621547" lon="14.669414311724">
        <ele>323.2</ele>
        <time>2015-06-08T21:22:18Z</time>
      </trkpt>
      <trkpt lat="57.654896551611" lon="14.669357230985">
        <ele>323.2</ele>
        <time>2015-06-08T21:22:19Z</time>
      </trkpt>
      <trkpt lat="57.654881212734" lon="14.669309789431">
        <ele>323.2</ele>
        <time>2015-06-08T21:22:20Z</time>
      </trkpt>
      <trkpt lat="57.654866712047" lon="14.669293780002">
        <ele>323.2</ele>
        <time>2015-06-08T21:22:21Z</time>
      </trkpt>
      <trkpt lat="57.654854055378" lon="14.669275842736">
        <ele>323.2</ele>
        <time>2015-06-08T21:22:22Z</time>
      </trkpt>
      <trkpt lat="57.654839806148" lon="14.669281961523">
        <ele>323.4</ele>
        <time>2015-06-08T21:22:23Z</time>
      </trkpt>
      <trkpt lat="57.654821365968" lon="14.669287996491">
        <ele>323.6</ele>
        <time>2015-06-08T21:22:24Z</time>
      </trkpt>
      <trkpt lat="57.654795549716" lon="14.66923527434">
        <ele>323.6</ele>
        <time>2015-06-08T21:22:25Z</time>
      </trkpt>
      <trkpt lat="57.654773337681" lon="14.669213984314">
        <ele>323.4</ele>
        <time>2015-06-08T21:22:26Z</time>
      </trkpt>
      <trkpt lat="57.654747521429" lon="14.669180959628">
        <ele>323.6</ele>
        <time>2015-06-08T21:22:27Z</time>
      </trkpt>
      <trkpt lat="57.654725728489" lon="14.669164195828">
        <ele>323.4</ele>
        <time>2015-06-08T21:22:28Z</time>
      </trkpt>
      <trkpt lat="57.654701840074" lon="14.669153550815">
        <ele>323</ele>
        <time>2015-06-08T21:22:29Z</time>
      </trkpt>
      <trkpt lat="57.654672587243" lon="14.669156819756">
        <ele>323</ele>
        <time>2015-06-08T21:22:30Z</time>
      </trkpt>
      <trkpt lat="57.654651967769" lon="14.669175930488">
        <ele>322.8</ele>
        <time>2015-06-08T21:22:31Z</time>
      </trkpt>
      <trkpt lat="57.654632354123" lon="14.669193532478">
        <ele>322.8</ele>
        <time>2015-06-08T21:22:32Z</time>
      </trkpt>
      <trkpt lat="57.654615506504" lon="14.66921264321">
        <ele>322.4</ele>
        <time>2015-06-08T21:22:33Z</time>
      </trkpt>
      <trkpt lat="57.654599161799" lon="14.66923611253">
        <ele>322.4</ele>
        <time>2015-06-08T21:22:34Z</time>
      </trkpt>
      <trkpt lat="57.654594970849" lon="14.669237034539">
        <ele>322.4</ele>
        <time>2015-06-08T21:22:35Z</time>
      </trkpt>
      <trkpt lat="57.654569322235" lon="14.66927383108">
        <ele>322.4</ele>
        <time>2015-06-08T21:22:36Z</time>
      </trkpt>
      <trkpt lat="57.654555073005" lon="14.669295456382">
        <ele>322.2</ele>
        <time>2015-06-08T21:22:37Z</time>
      </trkpt>
      <trkpt lat="57.654539482671" lon="14.66931741696">
        <ele>322.2</ele>
        <time>2015-06-08T21:22:38Z</time>
      </trkpt>
      <trkpt lat="57.654524562889" lon="14.669344741954">
        <ele>322.2</ele>
        <time>2015-06-08T21:22:39Z</time>
      </trkpt>
      <trkpt lat="57.654506122709" lon="14.669372402224">
        <ele>321.8</ele>
        <time>2015-06-08T21:22:40Z</time>
      </trkpt>
      <trkpt lat="57.654493801316" lon="14.669389836576">
        <ele>321.4</ele>
        <time>2015-06-08T21:22:41Z</time>
      </trkpt>
      <trkpt lat="57.654480055" lon="14.669417413027">
        <ele>321.2</ele>
        <time>2015-06-08T21:22:42Z</time>
      </trkpt>
      <trkpt lat="57.65446496758" lon="14.669443816012">
        <ele>321.4</ele>
        <time>2015-06-08T21:22:43Z</time>
      </trkpt>
      <trkpt lat="57.654445773029" lon="14.669468374979">
        <ele>321.4</ele>
        <time>2015-06-08T21:22:44Z</time>
      </trkpt>
      <trkpt lat="57.654427081392" lon="14.669493185403">
        <ele>321.4</ele>
        <time>2015-06-08T21:22:45Z</time>
      </trkpt>
      <trkpt lat="57.654408054479" lon="14.669505506796">
        <ele>321.2</ele>
        <time>2015-06-08T21:22:46Z</time>
      </trkpt>
      <trkpt lat="57.654385842444" lon="14.669520510397">
        <ele>321</ele>
        <time>2015-06-08T21:22:47Z</time>
      </trkpt>
      <trkpt lat="57.654359690916" lon="14.669525455718">
        <ele>320.6</ele>
        <time>2015-06-08T21:22:48Z</time>
      </trkpt>
      <trkpt lat="57.654339574356" lon="14.669525120442">
        <ele>320.4</ele>
        <time>2015-06-08T21:22:49Z</time>
      </trkpt>
      <trkpt lat="57.654312668457" lon="14.669529981944">
        <ele>320.2</ele>
        <time>2015-06-08T21:22:50Z</time>
      </trkpt>
      <trkpt lat="57.654286600748" lon="14.669534005256">
        <ele>320.2</ele>
        <time>2015-06-08T21:22:51Z</time>
      </trkpt>
      <trkpt lat="57.654262628514" lon="14.669527215917">
        <ele>319.8</ele>
        <time>2015-06-08T21:22:52Z</time>
      </trkpt>
      <trkpt lat="57.654239913565" lon="14.669516738542">
        <ele>319.8</ele>
        <time>2015-06-08T21:22:53Z</time>
      </trkpt>
      <trkpt lat="57.654211415105" lon="14.66951942075">
        <ele>319.6</ele>
        <time>2015-06-08T21:22:54Z</time>
      </trkpt>
      <trkpt lat="57.654182916645" lon="14.66951271523">
        <ele>319</ele>
        <time>2015-06-08T21:22:55Z</time>
      </trkpt>
      <trkpt lat="57.654155256375" lon="14.669507266995">
        <ele>319</ele>
        <time>2015-06-08T21:22:56Z</time>
      </trkpt>
      <trkpt lat="57.654130948865" lon="14.669513637239">
        <ele>318.8</ele>
        <time>2015-06-08T21:22:57Z</time>
      </trkpt>
      <trkpt lat="57.6541028695" lon="14.669516570904">
        <ele>318.6</ele>
        <time>2015-06-08T21:22:58Z</time>
      </trkpt>
      <trkpt lat="57.654077220886" lon="14.669514978343">
        <ele>318.4</ele>
        <time>2015-06-08T21:22:59Z</time>
      </trkpt>
      <trkpt lat="57.654046794589" lon="14.669523024967">
        <ele>318.2</ele>
        <time>2015-06-08T21:23:00Z</time>
      </trkpt>
      <trkpt lat="57.654017877034" lon="14.669518498741">
        <ele>318</ele>
        <time>2015-06-08T21:23:01Z</time>
      </trkpt>
      <trkpt lat="57.653991474049" lon="14.66951942075">
        <ele>318</ele>
        <time>2015-06-08T21:23:02Z</time>
      </trkpt>
      <trkpt lat="57.653966998901" lon="14.669515900352">
        <ele>317.8</ele>
        <time>2015-06-08T21:23:03Z</time>
      </trkpt>
      <trkpt lat="57.653941769382" lon="14.669504417149">
        <ele>318</ele>
        <time>2015-06-08T21:23:04Z</time>
      </trkpt>
      <trkpt lat="57.653919976442" lon="14.669502489312">
        <ele>318</ele>
        <time>2015-06-08T21:23:05Z</time>
      </trkpt>
      <trkpt lat="57.653891813258" lon="14.669492263394">
        <ele>318</ele>
        <time>2015-06-08T21:23:06Z</time>
      </trkpt>
      <trkpt lat="57.653865913187" lon="14.669485641693">
        <ele>318.4</ele>
        <time>2015-06-08T21:23:07Z</time>
      </trkpt>
      <trkpt lat="57.653844120247" lon="14.669480696372">
        <ele>318.6</ele>
        <time>2015-06-08T21:23:08Z</time>
      </trkpt>
      <trkpt lat="57.653818052538" lon="14.669462842925">
        <ele>318.8</ele>
        <time>2015-06-08T21:23:09Z</time>
      </trkpt>
      <trkpt lat="57.653795505227" lon="14.669452281731">
        <ele>319</ele>
        <time>2015-06-08T21:23:10Z</time>
      </trkpt>
      <trkpt lat="57.653775053391" lon="14.66942805804">
        <ele>319</ele>
        <time>2015-06-08T21:23:11Z</time>
      </trkpt>
      <trkpt lat="57.653751919347" lon="14.669404756358">
        <ele>319.2</ele>
        <time>2015-06-08T21:23:12Z</time>
      </trkpt>
      <trkpt lat="57.65372987495" lon="14.669390171852">
        <ele>319.2</ele>
        <time>2015-06-08T21:23:13Z</time>
      </trkpt>
      <trkpt lat="57.653706740906" lon="14.669357817718">
        <ele>319.4</ele>
        <time>2015-06-08T21:23:14Z</time>
      </trkpt>
      <trkpt lat="57.653686875803" lon="14.669338287891">
        <ele>319.2</ele>
        <time>2015-06-08T21:23:15Z</time>
      </trkpt>
      <trkpt lat="57.653667597433" lon="14.669314986209">
        <ele>319.2</ele>
        <time>2015-06-08T21:23:16Z</time>
      </trkpt>
      <trkpt lat="57.653653683479" lon="14.669307274861">
        <ele>319.8</ele>
        <time>2015-06-08T21:23:17Z</time>
      </trkpt>
      <trkpt lat="57.653631722901" lon="14.669311884906">
        <ele>319.8</ele>
        <time>2015-06-08T21:23:18Z</time>
      </trkpt>
      <trkpt lat="57.653608421219" lon="14.669339545176">
        <ele>320</ele>
        <time>2015-06-08T21:23:19Z</time>
      </trkpt>
      <trkpt lat="57.653595429274" lon="14.66936351741">
        <ele>320</ele>
        <time>2015-06-08T21:23:20Z</time>
      </trkpt>
      <trkpt lat="57.653579252207" lon="14.669394446621">
        <ele>320</ele>
        <time>2015-06-08T21:23:21Z</time>
      </trkpt>
      <trkpt lat="57.653563829511" lon="14.669427303669">
        <ele>320.2</ele>
        <time>2015-06-08T21:23:22Z</time>
      </trkpt>
      <trkpt lat="57.653553184498" lon="14.669454544844">
        <ele>320.2</ele>
        <time>2015-06-08T21:23:23Z</time>
      </trkpt>
      <trkpt lat="57.653535582508" lon="14.669491676661">
        <ele>320</ele>
        <time>2015-06-08T21:23:24Z</time>
      </trkpt>
      <trkpt lat="57.653528038798" lon="14.669522857329">
        <ele>320.2</ele>
        <time>2015-06-08T21:23:25Z</time>
      </trkpt>
      <trkpt lat="57.653511526455" lon="14.669558983318">
        <ele>320.2</ele>
        <time>2015-06-08T21:23:26Z</time>
      </trkpt>
      <trkpt lat="57.65350021089" lon="14.669603491207">
        <ele>320</ele>
        <time>2015-06-08T21:23:27Z</time>
      </trkpt>
      <trkpt lat="57.653491074619" lon="14.66963090002">
        <ele>320.2</ele>
        <time>2015-06-08T21:23:28Z</time>
      </trkpt>
      <trkpt lat="57.653477244484" lon="14.6696577221">
        <ele>320.4</ele>
        <time>2015-06-08T21:23:29Z</time>
      </trkpt>
      <trkpt lat="57.653464420177" lon="14.669691920252">
        <ele>320.6</ele>
        <time>2015-06-08T21:23:30Z</time>
      </trkpt>
      <trkpt lat="57.653448578386" lon="14.669728884431">
        <ele>320.6</ele>
        <time>2015-06-08T21:23:31Z</time>
      </trkpt>
      <trkpt lat="57.653439274477" lon="14.669751347923">
        <ele>320.6</ele>
        <time>2015-06-08T21:23:32Z</time>
      </trkpt>
      <trkpt lat="57.65342980293" lon="14.669775571614">
        <ele>320.6</ele>
        <time>2015-06-08T21:23:33Z</time>
      </trkpt>
      <trkpt lat="57.653415637519" lon="14.669797280735">
        <ele>320.6</ele>
        <time>2015-06-08T21:23:34Z</time>
      </trkpt>
      <trkpt lat="57.653402058841" lon="14.669835753656">
        <ele>320.8</ele>
        <time>2015-06-08T21:23:35Z</time>
      </trkpt>
      <trkpt lat="57.653383534842" lon="14.669884620133">
        <ele>321</ele>
        <time>2015-06-08T21:23:36Z</time>
      </trkpt>
      <trkpt lat="57.653372470734" lon="14.669912448041">
        <ele>320.8</ele>
        <time>2015-06-08T21:23:37Z</time>
      </trkpt>
      <trkpt lat="57.653356126029" lon="14.669942371424">
        <ele>320.8</ele>
        <time>2015-06-08T21:23:38Z</time>
      </trkpt>
      <trkpt lat="57.653338859315" lon="14.669974222644">
        <ele>320.8</ele>
        <time>2015-06-08T21:23:39Z</time>
      </trkpt>
      <trkpt lat="57.653324107171" lon="14.670005151855">
        <ele>320.8</ele>
        <time>2015-06-08T21:23:40Z</time>
      </trkpt>
      <trkpt lat="57.653312623968" lon="14.670040942568">
        <ele>320.8</ele>
        <time>2015-06-08T21:23:41Z</time>
      </trkpt>
      <trkpt lat="57.653293345598" lon="14.670097185117">
        <ele>320.6</ele>
        <time>2015-06-08T21:23:42Z</time>
      </trkpt>
      <trkpt lat="57.653279934558" lon="14.670139597531">
        <ele>320.4</ele>
        <time>2015-06-08T21:23:43Z</time>
      </trkpt>
      <trkpt lat="57.653265433871" lon="14.670192906415">
        <ele>320.2</ele>
        <time>2015-06-08T21:23:44Z</time>
      </trkpt>
      <trkpt lat="57.653251687555" lon="14.670235654105">
        <ele>320</ele>
        <time>2015-06-08T21:23:45Z</time>
      </trkpt>
      <trkpt lat="57.65323534285" lon="14.670282760383">
        <ele>320.2</ele>
        <time>2015-06-08T21:23:46Z</time>
      </trkpt>
      <trkpt lat="57.653225452208" lon="14.670315030698">
        <ele>320.2</ele>
        <time>2015-06-08T21:23:47Z</time>
      </trkpt>
      <trkpt lat="57.653209275141" lon="14.670356521103">
        <ele>320.2</ele>
        <time>2015-06-08T21:23:48Z</time>
      </trkpt>
      <trkpt lat="57.653196367015" lon="14.670393485282">
        <ele>320.4</ele>
        <time>2015-06-08T21:23:49Z</time>
      </trkpt>
      <trkpt lat="57.653182955975" lon="14.670434305135">
        <ele>320.6</ele>
        <time>2015-06-08T21:23:50Z</time>
      </trkpt>
      <trkpt lat="57.653165940718" lon="14.670477220463">
        <ele>320.8</ele>
        <time>2015-06-08T21:23:51Z</time>
      </trkpt>
      <trkpt lat="57.653151859126" lon="14.670514687556">
        <ele>321</ele>
        <time>2015-06-08T21:23:52Z</time>
      </trkpt>
      <trkpt lat="57.653137861353" lon="14.670549220984">
        <ele>320.8</ele>
        <time>2015-06-08T21:23:53Z</time>
      </trkpt>
      <trkpt lat="57.65312470177" lon="14.670574282865">
        <ele>321.2</ele>
        <time>2015-06-08T21:23:54Z</time>
      </trkpt>
      <trkpt lat="57.653105088124" lon="14.670618455478">
        <ele>321.2</ele>
        <time>2015-06-08T21:23:55Z</time>
      </trkpt>
      <trkpt lat="57.653086647944" lon="14.670653659458">
        <ele>321.4</ele>
        <time>2015-06-08T21:23:56Z</time>
      </trkpt>
      <trkpt lat="57.653073404542" lon="14.670686935601">
        <ele>321.2</ele>
        <time>2015-06-08T21:23:57Z</time>
      </trkpt>
      <trkpt lat="57.653058987674" lon="14.670713925319">
        <ele>321</ele>
        <time>2015-06-08T21:23:58Z</time>
      </trkpt>
      <trkpt lat="57.653047253014" lon="14.670744267797">
        <ele>320.8</ele>
        <time>2015-06-08T21:23:59Z</time>
      </trkpt>
      <trkpt lat="57.653034428707" lon="14.670776202836">
        <ele>320.8</ele>
        <time>2015-06-08T21:24:00Z</time>
      </trkpt>
      <trkpt lat="57.653021772038" lon="14.670809730436">
        <ele>321</ele>
        <time>2015-06-08T21:24:01Z</time>
      </trkpt>
      <trkpt lat="57.653008025722" lon="14.670844431502">
        <ele>321.2</ele>
        <time>2015-06-08T21:24:02Z</time>
      </trkpt>
      <trkpt lat="57.652992854483" lon="14.670881311862">
        <ele>321.2</ele>
        <time>2015-06-08T21:24:03Z</time>
      </trkpt>
      <trkpt lat="57.652978186158" lon="14.670916515842">
        <ele>321</ele>
        <time>2015-06-08T21:24:04Z</time>
      </trkpt>
      <trkpt lat="57.652965110394" lon="14.670947864148">
        <ele>320.8</ele>
        <time>2015-06-08T21:24:05Z</time>
      </trkpt>
      <trkpt lat="57.652949603879" lon="14.670983906318">
        <ele>320.8</ele>
        <time>2015-06-08T21:24:06Z</time>
      </trkpt>
      <trkpt lat="57.652936863391" lon="14.671016595728">
        <ele>320.8</ele>
        <time>2015-06-08T21:24:07Z</time>
      </trkpt>
      <trkpt lat="57.652920015772" lon="14.671059259599">
        <ele>320.8</ele>
        <time>2015-06-08T21:24:08Z</time>
      </trkpt>
      <trkpt lat="57.652904928352" lon="14.671101588194">
        <ele>320.6</ele>
        <time>2015-06-08T21:24:09Z</time>
      </trkpt>
      <trkpt lat="57.65289252314" lon="14.67113796564">
        <ele>320.6</ele>
        <time>2015-06-08T21:24:10Z</time>
      </trkpt>
      <trkpt lat="57.652877519539" lon="14.671173253439">
        <ele>320.6</ele>
        <time>2015-06-08T21:24:11Z</time>
      </trkpt>
      <trkpt lat="57.652859917549" lon="14.671209127971">
        <ele>320.2</ele>
        <time>2015-06-08T21:24:12Z</time>
      </trkpt>
      <trkpt lat="57.6528455845" lon="14.671235363318">
        <ele>320.4</ele>
        <time>2015-06-08T21:24:13Z</time>
      </trkpt>
      <trkpt lat="57.652832760193" lon="14.671276183171">
        <ele>320.4</ele>
        <time>2015-06-08T21:24:14Z</time>
      </trkpt>
      <trkpt lat="57.652818343325" lon="14.671317925033">
        <ele>320.6</ele>
        <time>2015-06-08T21:24:15Z</time>
      </trkpt>
      <trkpt lat="57.652802501534" lon="14.671348854244">
        <ele>320.6</ele>
        <time>2015-06-08T21:24:16Z</time>
      </trkpt>
      <trkpt lat="57.652791269788" lon="14.671383471491">
        <ele>320.8</ele>
        <time>2015-06-08T21:24:17Z</time>
      </trkpt>
      <trkpt lat="57.652778194024" lon="14.671428398475">
        <ele>321.2</ele>
        <time>2015-06-08T21:24:18Z</time>
      </trkpt>
      <trkpt lat="57.652767884287" lon="14.671458070401">
        <ele>321.4</ele>
        <time>2015-06-08T21:24:19Z</time>
      </trkpt>
      <trkpt lat="57.652751623401" lon="14.671501069548">
        <ele>321.4</ele>
        <time>2015-06-08T21:24:20Z</time>
      </trkpt>
      <trkpt lat="57.652736452162" lon="14.671544906885">
        <ele>321.4</ele>
        <time>2015-06-08T21:24:21Z</time>
      </trkpt>
      <trkpt lat="57.652724382226" lon="14.671583128349">
        <ele>321.4</ele>
        <time>2015-06-08T21:24:22Z</time>
      </trkpt>
      <trkpt lat="57.652707786064" lon="14.671626127496">
        <ele>321.6</ele>
        <time>2015-06-08T21:24:23Z</time>
      </trkpt>
      <trkpt lat="57.652691441359" lon="14.671670048652">
        <ele>321.4</ele>
        <time>2015-06-08T21:24:24Z</time>
      </trkpt>
      <trkpt lat="57.652678030319" lon="14.671713383075">
        <ele>321.6</ele>
        <time>2015-06-08T21:24:25Z</time>
      </trkpt>
      <trkpt lat="57.652664284003" lon="14.671754538204">
        <ele>321.6</ele>
        <time>2015-06-08T21:24:26Z</time>
      </trkpt>
      <trkpt lat="57.652651208239" lon="14.671796196247">
        <ele>321.8</ele>
        <time>2015-06-08T21:24:27Z</time>
      </trkpt>
      <trkpt lat="57.652634192982" lon="14.671836932281">
        <ele>321.6</ele>
        <time>2015-06-08T21:24:28Z</time>
      </trkpt>
      <trkpt lat="57.652624637616" lon="14.671870459881">
        <ele>321.8</ele>
        <time>2015-06-08T21:24:29Z</time>
      </trkpt>
      <trkpt lat="57.652610472205" lon="14.67190910044">
        <ele>322</ele>
        <time>2015-06-08T21:24:30Z</time>
      </trkpt>
      <trkpt lat="57.652595971518" lon="14.67194681899">
        <ele>322</ele>
        <time>2015-06-08T21:24:31Z</time>
      </trkpt>
      <trkpt lat="57.652586080876" lon="14.671988309395">
        <ele>321.8</ele>
        <time>2015-06-08T21:24:32Z</time>
      </trkpt>
      <trkpt lat="57.652566131954" lon="14.672029045429">
        <ele>321.8</ele>
        <time>2015-06-08T21:24:33Z</time>
      </trkpt>
      <trkpt lat="57.652550709258" lon="14.672076319345">
        <ele>321.8</ele>
        <time>2015-06-08T21:24:34Z</time>
      </trkpt>
      <trkpt lat="57.65253377782" lon="14.672112026239">
        <ele>322</ele>
        <time>2015-06-08T21:24:35Z</time>
      </trkpt>
      <trkpt lat="57.652520618237" lon="14.672140021785">
        <ele>322</ele>
        <time>2015-06-08T21:24:36Z</time>
      </trkpt>
      <trkpt lat="57.652506871921" lon="14.672176818326">
        <ele>322</ele>
        <time>2015-06-08T21:24:37Z</time>
      </trkpt>
      <trkpt lat="57.652491365406" lon="14.672211435573">
        <ele>322.2</ele>
        <time>2015-06-08T21:24:38Z</time>
      </trkpt>
      <trkpt lat="57.652475523615" lon="14.672234234341">
        <ele>322</ele>
        <time>2015-06-08T21:24:39Z</time>
      </trkpt>
      <trkpt lat="57.652461944937" lon="14.672267091389">
        <ele>322.2</ele>
        <time>2015-06-08T21:24:40Z</time>
      </trkpt>
      <trkpt lat="57.652449204449" lon="14.672294751659">
        <ele>322.2</ele>
        <time>2015-06-08T21:24:41Z</time>
      </trkpt>
      <trkpt lat="57.652432021554" lon="14.672325177956">
        <ele>322.2</ele>
        <time>2015-06-08T21:24:42Z</time>
      </trkpt>
      <trkpt lat="57.652417772324" lon="14.672353089683">
        <ele>322.4</ele>
        <time>2015-06-08T21:24:43Z</time>
      </trkpt>
      <trkpt lat="57.652401511438" lon="14.672380749953">
        <ele>322.4</ele>
        <time>2015-06-08T21:24:44Z</time>
      </trkpt>
      <trkpt lat="57.652385082914" lon="14.672411930621">
        <ele>322.6</ele>
        <time>2015-06-08T21:24:45Z</time>
      </trkpt>
      <trkpt lat="57.652365888363" lon="14.67243716014">
        <ele>322.4</ele>
        <time>2015-06-08T21:24:46Z</time>
      </trkpt>
      <trkpt lat="57.652345939441" lon="14.672469933369">
        <ele>322.2</ele>
        <time>2015-06-08T21:24:47Z</time>
      </trkpt>
      <trkpt lat="57.652322973035" lon="14.672511842869">
        <ele>322.2</ele>
        <time>2015-06-08T21:24:48Z</time>
      </trkpt>
      <trkpt lat="57.652302102104" lon="14.672546543935">
        <ele>322</ele>
        <time>2015-06-08T21:24:49Z</time>
      </trkpt>
      <trkpt lat="57.652281901725" lon="14.67257881425">
        <ele>322</ele>
        <time>2015-06-08T21:24:50Z</time>
      </trkpt>
      <trkpt lat="57.652262790993" lon="14.672617035714">
        <ele>321.8</ele>
        <time>2015-06-08T21:24:51Z</time>
      </trkpt>
      <trkpt lat="57.652241500967" lon="14.672650479495">
        <ele>321.6</ele>
        <time>2015-06-08T21:24:52Z</time>
      </trkpt>
      <trkpt lat="57.652221803502" lon="14.672679564688">
        <ele>321.8</ele>
        <time>2015-06-08T21:24:53Z</time>
      </trkpt>
      <trkpt lat="57.652195484336" lon="14.672715523039">
        <ele>321.4</ele>
        <time>2015-06-08T21:24:54Z</time>
      </trkpt>
      <trkpt lat="57.652172434111" lon="14.672740082006">
        <ele>321.2</ele>
        <time>2015-06-08T21:24:55Z</time>
      </trkpt>
      <trkpt lat="57.652148880972" lon="14.672768077552">
        <ele>321</ele>
        <time>2015-06-08T21:24:56Z</time>
      </trkpt>
      <trkpt lat="57.652122310349" lon="14.672797414202">
        <ele>321</ele>
        <time>2015-06-08T21:24:57Z</time>
      </trkpt>
      <trkpt lat="57.65209708083" lon="14.672831696173">
        <ele>320.8</ele>
        <time>2015-06-08T21:24:58Z</time>
      </trkpt>
      <trkpt lat="57.652074030605" lon="14.672864804678">
        <ele>321</ele>
        <time>2015-06-08T21:24:59Z</time>
      </trkpt>
      <trkpt lat="57.652045699783" lon="14.672894057509">
        <ele>321.2</ele>
        <time>2015-06-08T21:25:00Z</time>
      </trkpt>
      <trkpt lat="57.652019380617" lon="14.672921047227">
        <ele>321</ele>
        <time>2015-06-08T21:25:01Z</time>
      </trkpt>
      <trkpt lat="57.651995408383" lon="14.672954574827">
        <ele>321</ele>
        <time>2015-06-08T21:25:02Z</time>
      </trkpt>
      <trkpt lat="57.651976213832" lon="14.672980055803">
        <ele>321</ele>
        <time>2015-06-08T21:25:03Z</time>
      </trkpt>
      <trkpt lat="57.651953331245" lon="14.673009308634">
        <ele>321</ele>
        <time>2015-06-08T21:25:04Z</time>
      </trkpt>
      <trkpt lat="57.651924832785" lon="14.673043842062">
        <ele>321</ele>
        <time>2015-06-08T21:25:05Z</time>
      </trkpt>
      <trkpt lat="57.651902034017" lon="14.67307166997">
        <ele>320.8</ele>
        <time>2015-06-08T21:25:06Z</time>
      </trkpt>
      <trkpt lat="57.651884599665" lon="14.673094804014">
        <ele>320.8</ele>
        <time>2015-06-08T21:25:07Z</time>
      </trkpt>
      <trkpt lat="57.651860878888" lon="14.673124140664">
        <ele>320.6</ele>
        <time>2015-06-08T21:25:08Z</time>
      </trkpt>
      <trkpt lat="57.651836906654" lon="14.673157919721">
        <ele>321</ele>
        <time>2015-06-08T21:25:09Z</time>
      </trkpt>
      <trkpt lat="57.651811425678" lon="14.673187424009">
        <ele>321</ele>
        <time>2015-06-08T21:25:10Z</time>
      </trkpt>
      <trkpt lat="57.651792314946" lon="14.673213156442">
        <ele>321.2</ele>
        <time>2015-06-08T21:25:11Z</time>
      </trkpt>
      <trkpt lat="57.651767253065" lon="14.67324433711">
        <ele>321.2</ele>
        <time>2015-06-08T21:25:12Z</time>
      </trkpt>
      <trkpt lat="57.651743532288" lon="14.673271243009">
        <ele>321.2</ele>
        <time>2015-06-08T21:25:13Z</time>
      </trkpt>
      <trkpt lat="57.651720901158" lon="14.673304435333">
        <ele>321</ele>
        <time>2015-06-08T21:25:14Z</time>
      </trkpt>
      <trkpt lat="57.651699024399" lon="14.673330503042">
        <ele>321</ele>
        <time>2015-06-08T21:25:15Z</time>
      </trkpt>
      <trkpt lat="57.651674213975" lon="14.673359755873">
        <ele>320.8</ele>
        <time>2015-06-08T21:25:16Z</time>
      </trkpt>
      <trkpt lat="57.651654348872" lon="14.673389092523">
        <ele>320.6</ele>
        <time>2015-06-08T21:25:17Z</time>
      </trkpt>
      <trkpt lat="57.651628029706" lon="14.673422703942">
        <ele>320.6</ele>
        <time>2015-06-08T21:25:18Z</time>
      </trkpt>
      <trkpt lat="57.65160590149" lon="14.6734463409">
        <ele>320.6</ele>
        <time>2015-06-08T21:25:19Z</time>
      </trkpt>
      <trkpt lat="57.651584527645" lon="14.673476851016">
        <ele>320.6</ele>
        <time>2015-06-08T21:25:20Z</time>
      </trkpt>
      <trkpt lat="57.651560052497" lon="14.673511384444">
        <ele>320.8</ele>
        <time>2015-06-08T21:25:21Z</time>
      </trkpt>
      <trkpt lat="57.651542701964" lon="14.673528651158">
        <ele>320.4</ele>
        <time>2015-06-08T21:25:22Z</time>
      </trkpt>
      <trkpt lat="57.651521831033" lon="14.673557736351">
        <ele>320.4</ele>
        <time>2015-06-08T21:25:23Z</time>
      </trkpt>
      <trkpt lat="57.651494003125" lon="14.673591180132">
        <ele>320.4</ele>
        <time>2015-06-08T21:25:24Z</time>
      </trkpt>
      <trkpt lat="57.651475227669" lon="14.673616074375">
        <ele>320.2</ele>
        <time>2015-06-08T21:25:25Z</time>
      </trkpt>
      <trkpt lat="57.651453267091" lon="14.673644908111">
        <ele>320.2</ele>
        <time>2015-06-08T21:25:26Z</time>
      </trkpt>
      <trkpt lat="57.651427953753" lon="14.673676507874">
        <ele>320.2</ele>
        <time>2015-06-08T21:25:27Z</time>
      </trkpt>
      <trkpt lat="57.651410184125" lon="14.673700480108">
        <ele>320</ele>
        <time>2015-06-08T21:25:28Z</time>
      </trkpt>
      <trkpt lat="57.651392246859" lon="14.673727218369">
        <ele>320</ele>
        <time>2015-06-08T21:25:29Z</time>
      </trkpt>
      <trkpt lat="57.651363999856" lon="14.673758063761">
        <ele>320</ele>
        <time>2015-06-08T21:25:30Z</time>
      </trkpt>
      <trkpt lat="57.651344721486" lon="14.673788573877">
        <ele>319.8</ele>
        <time>2015-06-08T21:25:31Z</time>
      </trkpt>
      <trkpt lat="57.65132175508" lon="14.673817742889">
        <ele>320.2</ele>
        <time>2015-06-08T21:25:32Z</time>
      </trkpt>
      <trkpt lat="57.651301806158" lon="14.673840709295">
        <ele>320.2</ele>
        <time>2015-06-08T21:25:33Z</time>
      </trkpt>
      <trkpt lat="57.65127900739" lon="14.673866777004">
        <ele>320</ele>
        <time>2015-06-08T21:25:34Z</time>
      </trkpt>
      <trkpt lat="57.651256460079" lon="14.673892593256">
        <ele>320</ele>
        <time>2015-06-08T21:25:35Z</time>
      </trkpt>
      <trkpt lat="57.651233158397" lon="14.673918996241">
        <ele>319.8</ele>
        <time>2015-06-08T21:25:36Z</time>
      </trkpt>
      <trkpt lat="57.651212874199" lon="14.673942381742">
        <ele>319.6</ele>
        <time>2015-06-08T21:25:37Z</time>
      </trkpt>
      <trkpt lat="57.651193009096" lon="14.673964593777">
        <ele>319.6</ele>
        <time>2015-06-08T21:25:38Z</time>
      </trkpt>
      <trkpt lat="57.651173898364" lon="14.67399786992">
        <ele>319.6</ele>
        <time>2015-06-08T21:25:39Z</time>
      </trkpt>
      <trkpt lat="57.651154284718" lon="14.674022596525">
        <ele>319.6</ele>
        <time>2015-06-08T21:25:40Z</time>
      </trkpt>
      <trkpt lat="57.651129306656" lon="14.67405319046">
        <ele>319.4</ele>
        <time>2015-06-08T21:25:41Z</time>
      </trkpt>
      <trkpt lat="57.651112375218" lon="14.674079677264">
        <ele>319.2</ele>
        <time>2015-06-08T21:25:42Z</time>
      </trkpt>
      <trkpt lat="57.651092510115" lon="14.674106331706">
        <ele>318.8</ele>
        <time>2015-06-08T21:25:43Z</time>
      </trkpt>
      <trkpt lat="57.651066274768" lon="14.674134662528">
        <ele>318.6</ele>
        <time>2015-06-08T21:25:44Z</time>
      </trkpt>
      <trkpt lat="57.651049175692" lon="14.674163412445">
        <ele>318.4</ele>
        <time>2015-06-08T21:25:45Z</time>
      </trkpt>
      <trkpt lat="57.651025454915" lon="14.674194676932">
        <ele>318.2</ele>
        <time>2015-06-08T21:25:46Z</time>
      </trkpt>
      <trkpt lat="57.651005841269" lon="14.674214206759">
        <ele>318</ele>
        <time>2015-06-08T21:25:47Z</time>
      </trkpt>
      <trkpt lat="57.650986059985" lon="14.674241531753">
        <ele>318.2</ele>
        <time>2015-06-08T21:25:48Z</time>
      </trkpt>
      <trkpt lat="57.650959908457" lon="14.674277657742">
        <ele>318.6</ele>
        <time>2015-06-08T21:25:49Z</time>
      </trkpt>
      <trkpt lat="57.650939624259" lon="14.674306826754">
        <ele>318.6</ele>
        <time>2015-06-08T21:25:50Z</time>
      </trkpt>
      <trkpt lat="57.650918334233" lon="14.67434236601">
        <ele>318.8</ele>
        <time>2015-06-08T21:25:51Z</time>
      </trkpt>
      <trkpt lat="57.650892434162" lon="14.674372037936">
        <ele>318.8</ele>
        <time>2015-06-08T21:25:52Z</time>
      </trkpt>
      <trkpt lat="57.65087499981" lon="14.674398608559">
        <ele>319</ele>
        <time>2015-06-08T21:25:53Z</time>
      </trkpt>
      <trkpt lat="57.650850776119" lon="14.674430795055">
        <ele>319</ele>
        <time>2015-06-08T21:25:54Z</time>
      </trkpt>
      <trkpt lat="57.650828396446" lon="14.674459461153">
        <ele>319.2</ele>
        <time>2015-06-08T21:25:55Z</time>
      </trkpt>
      <trkpt lat="57.6508087828" lon="14.674481337912">
        <ele>319.2</ele>
        <time>2015-06-08T21:25:56Z</time>
      </trkpt>
      <trkpt lat="57.650783134186" lon="14.674502627938">
        <ele>319</ele>
        <time>2015-06-08T21:25:57Z</time>
      </trkpt>
      <trkpt lat="57.650768633499" lon="14.674526516353">
        <ele>319.2</ele>
        <time>2015-06-08T21:25:58Z</time>
      </trkpt>
      <trkpt lat="57.650747092016" lon="14.674547638741">
        <ele>319.2</ele>
        <time>2015-06-08T21:25:59Z</time>
      </trkpt>
      <trkpt lat="57.650720856669" lon="14.674574125545">
        <ele>319</ele>
        <time>2015-06-08T21:26:00Z</time>
      </trkpt>
      <trkpt lat="57.65070065629" lon="14.67459717577">
        <ele>318.8</ele>
        <time>2015-06-08T21:26:01Z</time>
      </trkpt>
      <trkpt lat="57.650674001848" lon="14.674618801072">
        <ele>319</ele>
        <time>2015-06-08T21:26:02Z</time>
      </trkpt>
      <trkpt lat="57.6506495267" lon="14.674640091098">
        <ele>319.2</ele>
        <time>2015-06-08T21:26:03Z</time>
      </trkpt>
      <trkpt lat="57.650628823407" lon="14.674663308961">
        <ele>319.4</ele>
        <time>2015-06-08T21:26:04Z</time>
      </trkpt>
      <trkpt lat="57.650605354087" lon="14.674676887639">
        <ele>319.4</ele>
        <time>2015-06-08T21:26:05Z</time>
      </trkpt>
      <trkpt lat="57.650582387681" lon="14.674694741086">
        <ele>319</ele>
        <time>2015-06-08T21:26:06Z</time>
      </trkpt>
      <trkpt lat="57.650561181474" lon="14.674714103275">
        <ele>318.8</ele>
        <time>2015-06-08T21:26:07Z</time>
      </trkpt>
      <trkpt lat="57.650540562" lon="14.674731202351">
        <ele>319</ele>
        <time>2015-06-08T21:26:08Z</time>
      </trkpt>
      <trkpt lat="57.65051960725" lon="14.674752911472">
        <ele>319</ele>
        <time>2015-06-08T21:26:09Z</time>
      </trkpt>
      <trkpt lat="57.65049529974" lon="14.674771016376">
        <ele>319.2</ele>
        <time>2015-06-08T21:26:10Z</time>
      </trkpt>
      <trkpt lat="57.650471914239" lon="14.67478660671">
        <ele>319.2</ele>
        <time>2015-06-08T21:26:11Z</time>
      </trkpt>
      <trkpt lat="57.650447439091" lon="14.674809908392">
        <ele>319</ele>
        <time>2015-06-08T21:26:12Z</time>
      </trkpt>
      <trkpt lat="57.65042237721" lon="14.674828600029">
        <ele>318.8</ele>
        <time>2015-06-08T21:26:13Z</time>
      </trkpt>
      <trkpt lat="57.650399662261" lon="14.674850476788">
        <ele>318.8</ele>
        <time>2015-06-08T21:26:14Z</time>
      </trkpt>
      <trkpt lat="57.650376444398" lon="14.67486791114">
        <ele>318.8</ele>
        <time>2015-06-08T21:26:15Z</time>
      </trkpt>
      <trkpt lat="57.650350544327" lon="14.674886016044">
        <ele>318.6</ele>
        <time>2015-06-08T21:26:16Z</time>
      </trkpt>
      <trkpt lat="57.650332271785" lon="14.674902696025">
        <ele>319</ele>
        <time>2015-06-08T21:26:17Z</time>
      </trkpt>
      <trkpt lat="57.650298995642" lon="14.67492658444">
        <ele>318.8</ele>
        <time>2015-06-08T21:26:18Z</time>
      </trkpt>
      <trkpt lat="57.65027737034" lon="14.674946198086">
        <ele>319</ele>
        <time>2015-06-08T21:26:19Z</time>
      </trkpt>
      <trkpt lat="57.650253398106" lon="14.674960531135">
        <ele>319.2</ele>
        <time>2015-06-08T21:26:20Z</time>
      </trkpt>
      <trkpt lat="57.650229006777" lon="14.674978803677">
        <ele>318.8</ele>
        <time>2015-06-08T21:26:21Z</time>
      </trkpt>
      <trkpt lat="57.650202687611" lon="14.675008391784">
        <ele>318.2</ele>
        <time>2015-06-08T21:26:22Z</time>
      </trkpt>
      <trkpt lat="57.650183912155" lon="14.675030436181">
        <ele>318</ele>
        <time>2015-06-08T21:26:23Z</time>
      </trkpt>
      <trkpt lat="57.65015583279" lon="14.675049882189">
        <ele>317.8</ele>
        <time>2015-06-08T21:26:24Z</time>
      </trkpt>
      <trkpt lat="57.650131776737" lon="14.675072848595">
        <ele>317.6</ele>
        <time>2015-06-08T21:26:25Z</time>
      </trkpt>
      <trkpt lat="57.650108977969" lon="14.675088941843">
        <ele>317.6</ele>
        <time>2015-06-08T21:26:26Z</time>
      </trkpt>
      <trkpt lat="57.650085005735" lon="14.675107968756">
        <ele>317.6</ele>
        <time>2015-06-08T21:26:27Z</time>
      </trkpt>
      <trkpt lat="57.650058770388" lon="14.675128252954">
        <ele>317.4</ele>
        <time>2015-06-08T21:26:28Z</time>
      </trkpt>
      <trkpt lat="57.65003429524" lon="14.675151470817">
        <ele>317</ele>
        <time>2015-06-08T21:26:29Z</time>
      </trkpt>
      <trkpt lat="57.650007556979" lon="14.675176784155">
        <ele>316.8</ele>
        <time>2015-06-08T21:26:30Z</time>
      </trkpt>
      <trkpt lat="57.649978471786" lon="14.675200588751">
        <ele>316.8</ele>
        <time>2015-06-08T21:26:31Z</time>
      </trkpt>
      <trkpt lat="57.649955086285" lon="14.675221878777">
        <ele>316.4</ele>
        <time>2015-06-08T21:26:32Z</time>
      </trkpt>
      <trkpt lat="57.649934634449" lon="14.675238307301">
        <ele>316.2</ele>
        <time>2015-06-08T21:26:33Z</time>
      </trkpt>
      <trkpt lat="57.6499119195" lon="14.675254568187">
        <ele>316.2</ele>
        <time>2015-06-08T21:26:34Z</time>
      </trkpt>
      <trkpt lat="57.649891970578" lon="14.675275690575">
        <ele>316.2</ele>
        <time>2015-06-08T21:26:35Z</time>
      </trkpt>
      <trkpt lat="57.649868585077" lon="14.675297148239">
        <ele>316.4</ele>
        <time>2015-06-08T21:26:36Z</time>
      </trkpt>
      <trkpt lat="57.649841260083" lon="14.67532137193">
        <ele>316.4</ele>
        <time>2015-06-08T21:26:37Z</time>
      </trkpt>
      <trkpt lat="57.649830531251" lon="14.675330256744">
        <ele>316.2</ele>
        <time>2015-06-08T21:26:38Z</time>
      </trkpt>
      <trkpt lat="57.649801362239" lon="14.67535573772">
        <ele>316.2</ele>
        <time>2015-06-08T21:26:39Z</time>
      </trkpt>
      <trkpt lat="57.649772612322" lon="14.675380548144">
        <ele>316.2</ele>
        <time>2015-06-08T21:26:40Z</time>
      </trkpt>
      <trkpt lat="57.649750651744" lon="14.675405861482">
        <ele>316</ele>
        <time>2015-06-08T21:26:41Z</time>
      </trkpt>
      <trkpt lat="57.649722740017" lon="14.675425391309">
        <ele>316</ele>
        <time>2015-06-08T21:26:42Z</time>
      </trkpt>
      <trkpt lat="57.649708071692" lon="14.675436371598">
        <ele>315.8</ele>
        <time>2015-06-08T21:26:43Z</time>
      </trkpt>
      <trkpt lat="57.649686697847" lon="14.675454392683">
        <ele>315.8</ele>
        <time>2015-06-08T21:26:44Z</time>
      </trkpt>
      <trkpt lat="57.649665826916" lon="14.675473754872">
        <ele>315.6</ele>
        <time>2015-06-08T21:26:45Z</time>
      </trkpt>
      <trkpt lat="57.649646129451" lon="14.67548733355">
        <ele>315.4</ele>
        <time>2015-06-08T21:26:46Z</time>
      </trkpt>
      <trkpt lat="57.649629617108" lon="14.675499990219">
        <ele>315.2</ele>
        <time>2015-06-08T21:26:47Z</time>
      </trkpt>
      <trkpt lat="57.649605225779" lon="14.6755082883">
        <ele>315</ele>
        <time>2015-06-08T21:26:48Z</time>
      </trkpt>
      <trkpt lat="57.649579493346" lon="14.675525638833">
        <ele>315</ele>
        <time>2015-06-08T21:26:49Z</time>
      </trkpt>
      <trkpt lat="57.649554096189" lon="14.67554600685">
        <ele>314.8</ele>
        <time>2015-06-08T21:26:50Z</time>
      </trkpt>
      <trkpt lat="57.649526268281" lon="14.675559920804">
        <ele>314.6</ele>
        <time>2015-06-08T21:26:51Z</time>
      </trkpt>
      <trkpt lat="57.649500535848" lon="14.67557953445">
        <ele>314.6</ele>
        <time>2015-06-08T21:26:52Z</time>
      </trkpt>
      <trkpt lat="57.649478072356" lon="14.67559629825">
        <ele>314.4</ele>
        <time>2015-06-08T21:26:53Z</time>
      </trkpt>
      <trkpt lat="57.649445969679" lon="14.675621276312">
        <ele>314.6</ele>
        <time>2015-06-08T21:26:54Z</time>
      </trkpt>
      <trkpt lat="57.649426942766" lon="14.675635609361">
        <ele>314.4</ele>
        <time>2015-06-08T21:26:55Z</time>
      </trkpt>
      <trkpt lat="57.649408418767" lon="14.675646254374">
        <ele>314.2</ele>
        <time>2015-06-08T21:26:56Z</time>
      </trkpt>
      <trkpt lat="57.649385033266" lon="14.675666119477">
        <ele>314.2</ele>
        <time>2015-06-08T21:26:57Z</time>
      </trkpt>
      <trkpt lat="57.64936625781" lon="14.675687325684">
        <ele>314</ele>
        <time>2015-06-08T21:26:58Z</time>
      </trkpt>
      <trkpt lat="57.649344129594" lon="14.675718506352">
        <ele>314.2</ele>
        <time>2015-06-08T21:26:59Z</time>
      </trkpt>
      <trkpt lat="57.649328371622" lon="14.675752788323">
        <ele>314</ele>
        <time>2015-06-08T21:27:00Z</time>
      </trkpt>
      <trkpt lat="57.649326443785" lon="14.675789165769">
        <ele>314.2</ele>
        <time>2015-06-08T21:27:01Z</time>
      </trkpt>
      <trkpt lat="57.649329712726" lon="14.675827219595">
        <ele>314</ele>
        <time>2015-06-08T21:27:02Z</time>
      </trkpt>
      <trkpt lat="57.64934446487" lon="14.675860998652">
        <ele>314</ele>
        <time>2015-06-08T21:27:03Z</time>
      </trkpt>
      <trkpt lat="57.649362653593" lon="14.675898717202">
        <ele>314</ele>
        <time>2015-06-08T21:27:04Z</time>
      </trkpt>
      <trkpt lat="57.64937463971" lon="14.67593325063">
        <ele>314</ele>
        <time>2015-06-08T21:27:05Z</time>
      </trkpt>
      <trkpt lat="57.649381848144" lon="14.675977004148">
        <ele>314.4</ele>
        <time>2015-06-08T21:27:06Z</time>
      </trkpt>
      <trkpt lat="57.649393666623" lon="14.676010950843">
        <ele>314.4</ele>
        <time>2015-06-08T21:27:07Z</time>
      </trkpt>
      <trkpt lat="57.64941068188" lon="14.676045651909">
        <ele>314.6</ele>
        <time>2015-06-08T21:27:08Z</time>
      </trkpt>
      <trkpt lat="57.649429289698" lon="14.676085633572">
        <ele>314.8</ele>
        <time>2015-06-08T21:27:09Z</time>
      </trkpt>
      <trkpt lat="57.64944337129" lon="14.676128045986">
        <ele>314.8</ele>
        <time>2015-06-08T21:27:10Z</time>
      </trkpt>
      <trkpt lat="57.649459045443" lon="14.676167189459">
        <ele>315.2</ele>
        <time>2015-06-08T21:27:11Z</time>
      </trkpt>
      <trkpt lat="57.649476982709" lon="14.676216475031">
        <ele>315.4</ele>
        <time>2015-06-08T21:27:12Z</time>
      </trkpt>
      <trkpt lat="57.649493830328" lon="14.676258049255">
        <ele>315.4</ele>
        <time>2015-06-08T21:27:13Z</time>
      </trkpt>
      <trkpt lat="57.64950875011" lon="14.676301383678">
        <ele>315.8</ele>
        <time>2015-06-08T21:27:14Z</time>
      </trkpt>
      <trkpt lat="57.649523083159" lon="14.676354524924">
        <ele>315.6</ele>
        <time>2015-06-08T21:27:15Z</time>
      </trkpt>
      <trkpt lat="57.649534901638" lon="14.676391321465">
        <ele>315.6</ele>
        <time>2015-06-08T21:27:16Z</time>
      </trkpt>
      <trkpt lat="57.649577146414" lon="14.676553092135">
        <ele>315.2</ele>
        <time>2015-06-08T21:27:18Z</time>
      </trkpt>
      <trkpt lat="57.649577146414" lon="14.676553092135">
        <ele>315.2</ele>
        <time>2015-06-08T21:27:20Z</time>
      </trkpt>
      <trkpt lat="57.649587372332" lon="14.67659458254">
        <ele>315</ele>
        <time>2015-06-08T21:27:21Z</time>
      </trkpt>
      <trkpt lat="57.649588797255" lon="14.676598941128">
        <ele>315.4</ele>
        <time>2015-06-08T21:27:22Z</time>
      </trkpt>
      <trkpt lat="57.649588797255" lon="14.676598941128">
        <ele>315.4</ele>
        <time>2015-06-08T21:27:24Z</time>
      </trkpt>
      <trkpt lat="57.649598855535" lon="14.676639174248">
        <ele>315.2</ele>
        <time>2015-06-08T21:27:25Z</time>
      </trkpt>
      <trkpt lat="57.649598184983" lon="14.676670354916">
        <ele>315.4</ele>
        <time>2015-06-08T21:27:26Z</time>
      </trkpt>
      <trkpt lat="57.649598184983" lon="14.676670354916">
        <ele>315.4</ele>
        <time>2015-06-08T21:27:28Z</time>
      </trkpt>
      <trkpt lat="57.64960765653" lon="14.67671863466">
        <ele>315.2</ele>
        <time>2015-06-08T21:27:29Z</time>
      </trkpt>
      <trkpt lat="57.649598855535" lon="14.676708660199">
        <ele>315.8</ele>
        <time>2015-06-08T21:27:30Z</time>
      </trkpt>
      <trkpt lat="57.649595335137" lon="14.676841764771">
        <ele>316.2</ele>
        <time>2015-06-08T21:27:31Z</time>
      </trkpt>
      <trkpt lat="57.649576308224" lon="14.676952070575">
        <ele>316.4</ele>
        <time>2015-06-08T21:27:32Z</time>
      </trkpt>
      <trkpt lat="57.64957831988" lon="14.67719891753">
        <ele>315.6</ele>
        <time>2015-06-08T21:27:34Z</time>
      </trkpt>
      <trkpt lat="57.64958837816" lon="14.677308971877">
        <ele>316.2</ele>
        <time>2015-06-08T21:27:35Z</time>
      </trkpt>
      <trkpt lat="57.64958921635" lon="14.677375356525">
        <ele>316.2</ele>
        <time>2015-06-08T21:27:36Z</time>
      </trkpt>
      <trkpt lat="57.649589719264" lon="14.677422462803">
        <ele>316.2</ele>
        <time>2015-06-08T21:27:37Z</time>
      </trkpt>
      <trkpt lat="57.649593239662" lon="14.677471664556">
        <ele>316.6</ele>
        <time>2015-06-08T21:27:38Z</time>
      </trkpt>
      <trkpt lat="57.649601956838" lon="14.677520279576">
        <ele>316.8</ele>
        <time>2015-06-08T21:27:39Z</time>
      </trkpt>
      <trkpt lat="57.649616541344" lon="14.677565290379">
        <ele>317.4</ele>
        <time>2015-06-08T21:27:40Z</time>
      </trkpt>
      <trkpt lat="57.649625845253" lon="14.677610217363">
        <ele>318</ele>
        <time>2015-06-08T21:27:41Z</time>
      </trkpt>
      <trkpt lat="57.649639256293" lon="14.677662352781">
        <ele>318.4</ele>
        <time>2015-06-08T21:27:42Z</time>
      </trkpt>
      <trkpt lat="57.649640010664" lon="14.677712979457">
        <ele>318.6</ele>
        <time>2015-06-08T21:27:43Z</time>
      </trkpt>
      <trkpt lat="57.649642189958" lon="14.677758576993">
        <ele>318.6</ele>
        <time>2015-06-08T21:27:44Z</time>
      </trkpt>
      <trkpt lat="57.649639172474" lon="14.677809790402">
        <ele>318.8</ele>
        <time>2015-06-08T21:27:45Z</time>
      </trkpt>
      <trkpt lat="57.6496520806" lon="14.677853292463">
        <ele>318.8</ele>
        <time>2015-06-08T21:27:46Z</time>
      </trkpt>
      <trkpt lat="57.649648644021" lon="14.677886317149">
        <ele>318.8</ele>
        <time>2015-06-08T21:27:47Z</time>
      </trkpt>
      <trkpt lat="57.649647973469" lon="14.67794993577">
        <ele>318.8</ele>
        <time>2015-06-08T21:27:48Z</time>
      </trkpt>
      <trkpt lat="57.649641854682" lon="14.677998969885">
        <ele>318.8</ele>
        <time>2015-06-08T21:27:49Z</time>
      </trkpt>
      <trkpt lat="57.649641603225" lon="14.678049596561">
        <ele>318.8</ele>
        <time>2015-06-08T21:27:50Z</time>
      </trkpt>
      <trkpt lat="57.649639256293" lon="14.678101229065">
        <ele>319</ele>
        <time>2015-06-08T21:27:51Z</time>
      </trkpt>
      <trkpt lat="57.649639172474" lon="14.678152442474">
        <ele>319.2</ele>
        <time>2015-06-08T21:27:52Z</time>
      </trkpt>
      <trkpt lat="57.649635987352" lon="14.678198626743">
        <ele>319.4</ele>
        <time>2015-06-08T21:27:53Z</time>
      </trkpt>
      <trkpt lat="57.649633137506" lon="14.678249923971">
        <ele>319.2</ele>
        <time>2015-06-08T21:27:54Z</time>
      </trkpt>
      <trkpt lat="57.649629281832" lon="14.678290995281">
        <ele>319.2</ele>
        <time>2015-06-08T21:27:55Z</time>
      </trkpt>
      <trkpt lat="57.649623079226" lon="14.678338185378">
        <ele>319.2</ele>
        <time>2015-06-08T21:27:56Z</time>
      </trkpt>
      <trkpt lat="57.649623414502" lon="14.678377077394">
        <ele>319.4</ele>
        <time>2015-06-08T21:27:57Z</time>
      </trkpt>
      <trkpt lat="57.649618133905" lon="14.678416388505">
        <ele>319.2</ele>
        <time>2015-06-08T21:27:58Z</time>
      </trkpt>
      <trkpt lat="57.649613942955" lon="14.678464081516">
        <ele>319</ele>
        <time>2015-06-08T21:27:59Z</time>
      </trkpt>
      <trkpt lat="57.649609668186" lon="14.678512696536">
        <ele>319.2</ele>
        <time>2015-06-08T21:28:00Z</time>
      </trkpt>
      <trkpt lat="57.649607321254" lon="14.678560808642">
        <ele>319.2</ele>
        <time>2015-06-08T21:28:01Z</time>
      </trkpt>
      <trkpt lat="57.649606985978" lon="14.67860623854">
        <ele>319.2</ele>
        <time>2015-06-08T21:28:02Z</time>
      </trkpt>
      <trkpt lat="57.649607153616" lon="14.678649992058">
        <ele>319.4</ele>
        <time>2015-06-08T21:28:03Z</time>
      </trkpt>
      <trkpt lat="57.649604806684" lon="14.678699612906">
        <ele>319.2</ele>
        <time>2015-06-08T21:28:04Z</time>
      </trkpt>
      <trkpt lat="57.649604052313" lon="14.678737750551">
        <ele>319.4</ele>
        <time>2015-06-08T21:28:05Z</time>
      </trkpt>
      <trkpt lat="57.649601705381" lon="14.678787622856">
        <ele>319.4</ele>
        <time>2015-06-08T21:28:06Z</time>
      </trkpt>
      <trkpt lat="57.649600280458" lon="14.678825676682">
        <ele>319.4</ele>
        <time>2015-06-08T21:28:07Z</time>
      </trkpt>
      <trkpt lat="57.649597849707" lon="14.678865993621">
        <ele>319.6</ele>
        <time>2015-06-08T21:28:08Z</time>
      </trkpt>
      <trkpt lat="57.649592904386" lon="14.678906226741">
        <ele>319.6</ele>
        <time>2015-06-08T21:28:09Z</time>
      </trkpt>
      <trkpt lat="57.649582259373" lon="14.678950064078">
        <ele>320</ele>
        <time>2015-06-08T21:28:10Z</time>
      </trkpt>
      <trkpt lat="57.649581505002" lon="14.678993817596">
        <ele>320.2</ele>
        <time>2015-06-08T21:28:11Z</time>
      </trkpt>
      <trkpt lat="57.649580918269" lon="14.679045785376">
        <ele>320.2</ele>
        <time>2015-06-08T21:28:12Z</time>
      </trkpt>
      <trkpt lat="57.649573709835" lon="14.679091718188">
        <ele>320.2</ele>
        <time>2015-06-08T21:28:13Z</time>
      </trkpt>
      <trkpt lat="57.649576308224" lon="14.679144775615">
        <ele>320.2</ele>
        <time>2015-06-08T21:28:14Z</time>
      </trkpt>
      <trkpt lat="57.649574548025" lon="14.679194396463">
        <ele>320.4</ele>
        <time>2015-06-08T21:28:15Z</time>
      </trkpt>
      <trkpt lat="57.649569183609" lon="14.679238652895">
        <ele>320.6</ele>
        <time>2015-06-08T21:28:16Z</time>
      </trkpt>
      <trkpt lat="57.649566417582" lon="14.679279724205">
        <ele>320.6</ele>
        <time>2015-06-08T21:28:17Z</time>
      </trkpt>
      <trkpt lat="57.649566501401" lon="14.67932289099">
        <ele>320.6</ele>
        <time>2015-06-08T21:28:18Z</time>
      </trkpt>
      <trkpt lat="57.649564154469" lon="14.679368237069">
        <ele>320.4</ele>
        <time>2015-06-08T21:28:19Z</time>
      </trkpt>
      <trkpt lat="57.649564154469" lon="14.679412325863">
        <ele>320.6</ele>
        <time>2015-06-08T21:28:20Z</time>
      </trkpt>
      <trkpt lat="57.649561136985" lon="14.67945364863">
        <ele>320.6</ele>
        <time>2015-06-08T21:28:21Z</time>
      </trkpt>
      <trkpt lat="57.649551749257" lon="14.679507628066">
        <ele>321</ele>
        <time>2015-06-08T21:28:22Z</time>
      </trkpt>
      <trkpt lat="57.649549486144" lon="14.679559009113">
        <ele>321.4</ele>
        <time>2015-06-08T21:28:23Z</time>
      </trkpt>
      <trkpt lat="57.649547055393" lon="14.67961458111">
        <ele>322</ele>
        <time>2015-06-08T21:28:24Z</time>
      </trkpt>
      <trkpt lat="57.649543367357" lon="14.679659927189">
        <ele>321.8</ele>
        <time>2015-06-08T21:28:25Z</time>
      </trkpt>
      <trkpt lat="57.649544540823" lon="14.679708877485">
        <ele>322</ele>
        <time>2015-06-08T21:28:26Z</time>
      </trkpt>
      <trkpt lat="57.649549653782" lon="14.679746596035">
        <ele>322</ele>
        <time>2015-06-08T21:28:27Z</time>
      </trkpt>
      <trkpt lat="57.649562226632" lon="14.679779872178">
        <ele>322.2</ele>
        <time>2015-06-08T21:28:28Z</time>
      </trkpt>
      <trkpt lat="57.649579828622" lon="14.679799485824">
        <ele>322.2</ele>
        <time>2015-06-08T21:28:29Z</time>
      </trkpt>
      <trkpt lat="57.649600615734" lon="14.679808119181">
        <ele>322.2</ele>
        <time>2015-06-08T21:28:30Z</time>
      </trkpt>
      <trkpt lat="57.649619810285" lon="14.679810801389">
        <ele>322.2</ele>
        <time>2015-06-08T21:28:31Z</time>
      </trkpt>
      <trkpt lat="57.649641519406" lon="14.679815243796">
        <ele>322.4</ele>
        <time>2015-06-08T21:28:32Z</time>
      </trkpt>
      <trkpt lat="57.649660546319" lon="14.679810969027">
        <ele>322.4</ele>
        <time>2015-06-08T21:28:33Z</time>
      </trkpt>
      <trkpt lat="57.649683764182" lon="14.679810382294">
        <ele>322.6</ele>
        <time>2015-06-08T21:28:34Z</time>
      </trkpt>
      <trkpt lat="57.649705808579" lon="14.679809544104">
        <ele>322.4</ele>
        <time>2015-06-08T21:28:35Z</time>
      </trkpt>
      <trkpt lat="57.649728272071" lon="14.679804095869">
        <ele>322.4</ele>
        <time>2015-06-08T21:28:36Z</time>
      </trkpt>
      <trkpt lat="57.649748556269" lon="14.679793702313">
        <ele>322.4</ele>
        <time>2015-06-08T21:28:37Z</time>
      </trkpt>
      <trkpt lat="57.649768840467" lon="14.679790852467">
        <ele>322.4</ele>
        <time>2015-06-08T21:28:38Z</time>
      </trkpt>
      <trkpt lat="57.649793567072" lon="14.679782638205">
        <ele>322.4</ele>
        <time>2015-06-08T21:28:39Z</time>
      </trkpt>
      <trkpt lat="57.649814438003" lon="14.679778279617">
        <ele>322.4</ele>
        <time>2015-06-08T21:28:40Z</time>
      </trkpt>
      <trkpt lat="57.649832039993" lon="14.679770232993">
        <ele>322</ele>
        <time>2015-06-08T21:28:41Z</time>
      </trkpt>
      <trkpt lat="57.649852491829" lon="14.679756654315">
        <ele>321.8</ele>
        <time>2015-06-08T21:28:42Z</time>
      </trkpt>
      <trkpt lat="57.649877972805" lon="14.679741315438">
        <ele>321.6</ele>
        <time>2015-06-08T21:28:43Z</time>
      </trkpt>
      <trkpt lat="57.649896329166" lon="14.679733017357">
        <ele>321.6</ele>
        <time>2015-06-08T21:28:44Z</time>
      </trkpt>
      <trkpt lat="57.649917954468" lon="14.679732849719">
        <ele>321.8</ele>
        <time>2015-06-08T21:28:45Z</time>
      </trkpt>
      <trkpt lat="57.64993790339" lon="14.679730167511">
        <ele>321.6</ele>
        <time>2015-06-08T21:28:46Z</time>
      </trkpt>
      <trkpt lat="57.649954164276" lon="14.679727904398">
        <ele>321.8</ele>
        <time>2015-06-08T21:28:47Z</time>
      </trkpt>
      <trkpt lat="57.649975873397" lon="14.679730838063">
        <ele>321.8</ele>
        <time>2015-06-08T21:28:48Z</time>
      </trkpt>
      <trkpt lat="57.649998588346" lon="14.679728658769">
        <ele>322</ele>
        <time>2015-06-08T21:28:49Z</time>
      </trkpt>
      <trkpt lat="57.650028008815" lon="14.679728407312">
        <ele>322.2</ele>
        <time>2015-06-08T21:28:50Z</time>
      </trkpt>
      <trkpt lat="57.65005105904" lon="14.679720947421">
        <ele>322</ele>
        <time>2015-06-08T21:28:51Z</time>
      </trkpt>
      <trkpt lat="57.650069918315" lon="14.679725389828">
        <ele>322</ele>
        <time>2015-06-08T21:28:52Z</time>
      </trkpt>
      <trkpt lat="57.650089112866" lon="14.679727820579">
        <ele>321.8</ele>
        <time>2015-06-08T21:28:53Z</time>
      </trkpt>
      <trkpt lat="57.650110402892" lon="14.679720863602">
        <ele>322.2</ele>
        <time>2015-06-08T21:28:54Z</time>
      </trkpt>
      <trkpt lat="57.650133453117" lon="14.679713822806">
        <ele>322</ele>
        <time>2015-06-08T21:28:55Z</time>
      </trkpt>
      <trkpt lat="57.65015834736" lon="14.67970678201">
        <ele>322.2</ele>
        <time>2015-06-08T21:28:56Z</time>
      </trkpt>
      <trkpt lat="57.650188019286" lon="14.67969420916">
        <ele>322</ele>
        <time>2015-06-08T21:28:57Z</time>
      </trkpt>
      <trkpt lat="57.650211907701" lon="14.679683731785">
        <ele>321.2</ele>
        <time>2015-06-08T21:28:58Z</time>
      </trkpt>
      <trkpt lat="57.650238394505" lon="14.679667638537">
        <ele>321</ele>
        <time>2015-06-08T21:28:59Z</time>
      </trkpt>
      <trkpt lat="57.650270497182" lon="14.679656742067">
        <ele>321</ele>
        <time>2015-06-08T21:29:00Z</time>
      </trkpt>
      <trkpt lat="57.650296564891" lon="14.679647773434">
        <ele>321</ele>
        <time>2015-06-08T21:29:01Z</time>
      </trkpt>
      <trkpt lat="57.650322213505" lon="14.679636876964">
        <ele>320.6</ele>
        <time>2015-06-08T21:29:02Z</time>
      </trkpt>
      <trkpt lat="57.65034861649" lon="14.679629500892">
        <ele>320.4</ele>
        <time>2015-06-08T21:29:03Z</time>
      </trkpt>
      <trkpt lat="57.650374516561" lon="14.67960452283">
        <ele>320.4</ele>
        <time>2015-06-08T21:29:04Z</time>
      </trkpt>
      <trkpt lat="57.650398488795" lon="14.679592452894">
        <ele>320.2</ele>
        <time>2015-06-08T21:29:05Z</time>
      </trkpt>
      <trkpt lat="57.650419275907" lon="14.679580885872">
        <ele>319.6</ele>
        <time>2015-06-08T21:29:06Z</time>
      </trkpt>
      <trkpt lat="57.65044417015" lon="14.679571162868">
        <ele>319.4</ele>
        <time>2015-06-08T21:29:07Z</time>
      </trkpt>
      <trkpt lat="57.650467471832" lon="14.679570576135">
        <ele>319</ele>
        <time>2015-06-08T21:29:08Z</time>
      </trkpt>
      <trkpt lat="57.650493790998" lon="14.67956596609">
        <ele>319</ele>
        <time>2015-06-08T21:29:09Z</time>
      </trkpt>
      <trkpt lat="57.650521367449" lon="14.679556494543">
        <ele>319</ele>
        <time>2015-06-08T21:29:10Z</time>
      </trkpt>
      <trkpt lat="57.650543663303" lon="14.679547442091">
        <ele>318.8</ele>
        <time>2015-06-08T21:29:11Z</time>
      </trkpt>
      <trkpt lat="57.650570401564" lon="14.679539311648">
        <ele>318.6</ele>
        <time>2015-06-08T21:29:12Z</time>
      </trkpt>
      <trkpt lat="57.650594373798" lon="14.679530510653">
        <ele>318.4</ele>
        <time>2015-06-08T21:29:13Z</time>
      </trkpt>
      <trkpt lat="57.650619519498" lon="14.679523805133">
        <ele>318.6</ele>
        <time>2015-06-08T21:29:14Z</time>
      </trkpt>
      <trkpt lat="57.650644665198" lon="14.679521374382">
        <ele>318.4</ele>
        <time>2015-06-08T21:29:15Z</time>
      </trkpt>
      <trkpt lat="57.650660171713" lon="14.67951148374">
        <ele>318.2</ele>
        <time>2015-06-08T21:29:16Z</time>
      </trkpt>
      <trkpt lat="57.65068221611" lon="14.679510058817">
        <ele>318</ele>
        <time>2015-06-08T21:29:17Z</time>
      </trkpt>
      <trkpt lat="57.650711636579" lon="14.679501593098">
        <ele>317.6</ele>
        <time>2015-06-08T21:29:18Z</time>
      </trkpt>
      <trkpt lat="57.650734267709" lon="14.679494300845">
        <ele>317.6</ele>
        <time>2015-06-08T21:29:19Z</time>
      </trkpt>
      <trkpt lat="57.650758659038" lon="14.679489606981">
        <ele>317.4</ele>
        <time>2015-06-08T21:29:20Z</time>
      </trkpt>
      <trkpt lat="57.65077357882" lon="14.679479464882">
        <ele>317.4</ele>
        <time>2015-06-08T21:29:21Z</time>
      </trkpt>
      <trkpt lat="57.65080962099" lon="14.679461108521">
        <ele>317.4</ele>
        <time>2015-06-08T21:29:22Z</time>
      </trkpt>
      <trkpt lat="57.650826971523" lon="14.679459851236">
        <ele>317.8</ele>
        <time>2015-06-08T21:29:23Z</time>
      </trkpt>
      <trkpt lat="57.650851781947" lon="14.679452056069">
        <ele>318</ele>
        <time>2015-06-08T21:29:24Z</time>
      </trkpt>
      <trkpt lat="57.650878687846" lon="14.679458426313">
        <ele>318</ele>
        <time>2015-06-08T21:29:25Z</time>
      </trkpt>
      <trkpt lat="57.650905761383" lon="14.679459180684">
        <ele>317.8</ele>
        <time>2015-06-08T21:29:26Z</time>
      </trkpt>
      <trkpt lat="57.650928560151" lon="14.679453313354">
        <ele>318.2</ele>
        <time>2015-06-08T21:29:27Z</time>
      </trkpt>
      <trkpt lat="57.650949263444" lon="14.679450128232">
        <ele>318.4</ele>
        <time>2015-06-08T21:29:28Z</time>
      </trkpt>
      <trkpt lat="57.650971726936" lon="14.679432358604">
        <ele>318.4</ele>
        <time>2015-06-08T21:29:29Z</time>
      </trkpt>
      <trkpt lat="57.650997543188" lon="14.679426155998">
        <ele>318.4</ele>
        <time>2015-06-08T21:29:30Z</time>
      </trkpt>
      <trkpt lat="57.651023946173" lon="14.679418947564">
        <ele>318.8</ele>
        <time>2015-06-08T21:29:31Z</time>
      </trkpt>
      <trkpt lat="57.651048086045" lon="14.679416181537">
        <ele>319</ele>
        <time>2015-06-08T21:29:32Z</time>
      </trkpt>
      <trkpt lat="57.651072896469" lon="14.679432526242">
        <ele>318.8</ele>
        <time>2015-06-08T21:29:33Z</time>
      </trkpt>
      <trkpt lat="57.651101981662" lon="14.679440572866">
        <ele>318.6</ele>
        <time>2015-06-08T21:29:34Z</time>
      </trkpt>
      <trkpt lat="57.651124109878" lon="14.679427832378">
        <ele>318.4</ele>
        <time>2015-06-08T21:29:35Z</time>
      </trkpt>
      <trkpt lat="57.651151686329" lon="14.679423641428">
        <ele>318.4</ele>
        <time>2015-06-08T21:29:36Z</time>
      </trkpt>
      <trkpt lat="57.651178927504" lon="14.679419366659">
        <ele>318.4</ele>
        <time>2015-06-08T21:29:37Z</time>
      </trkpt>
      <trkpt lat="57.651204911394" lon="14.679411068578">
        <ele>318.4</ele>
        <time>2015-06-08T21:29:38Z</time>
      </trkpt>
      <trkpt lat="57.651226536696" lon="14.67940168085">
        <ele>318.4</ele>
        <time>2015-06-08T21:29:39Z</time>
      </trkpt>
      <trkpt lat="57.651248916369" lon="14.67939246076">
        <ele>318.2</ele>
        <time>2015-06-08T21:29:40Z</time>
      </trkpt>
      <trkpt lat="57.651282024874" lon="14.679393215131">
        <ele>318.2</ele>
        <time>2015-06-08T21:29:41Z</time>
      </trkpt>
      <trkpt lat="57.651308511678" lon="14.679393215131">
        <ele>318.2</ele>
        <time>2015-06-08T21:29:42Z</time>
      </trkpt>
      <trkpt lat="57.651333573559" lon="14.67938659343">
        <ele>318.2</ele>
        <time>2015-06-08T21:29:43Z</time>
      </trkpt>
      <trkpt lat="57.651357545793" lon="14.679375780779">
        <ele>318.2</ele>
        <time>2015-06-08T21:29:44Z</time>
      </trkpt>
      <trkpt lat="57.651379674009" lon="14.679366309232">
        <ele>318.2</ele>
        <time>2015-06-08T21:29:45Z</time>
      </trkpt>
      <trkpt lat="57.651403730062" lon="14.679358849341">
        <ele>318.4</ele>
        <time>2015-06-08T21:29:46Z</time>
      </trkpt>
      <trkpt lat="57.651426780287" lon="14.679345270663">
        <ele>318.4</ele>
        <time>2015-06-08T21:29:47Z</time>
      </trkpt>
      <trkpt lat="57.65145083634" lon="14.679334206555">
        <ele>318.8</ele>
        <time>2015-06-08T21:29:48Z</time>
      </trkpt>
      <trkpt lat="57.651477909877" lon="14.679321801343">
        <ele>318.8</ele>
        <time>2015-06-08T21:29:49Z</time>
      </trkpt>
      <trkpt lat="57.651507330346" lon="14.679316604565">
        <ele>318.6</ele>
        <time>2015-06-08T21:29:50Z</time>
      </trkpt>
      <trkpt lat="57.651531973132" lon="14.67930780357">
        <ele>318.8</ele>
        <time>2015-06-08T21:29:51Z</time>
      </trkpt>
      <trkpt lat="57.651556113004" lon="14.679301349507">
        <ele>319</ele>
        <time>2015-06-08T21:29:52Z</time>
      </trkpt>
      <trkpt lat="57.651575978107" lon="14.679295063082">
        <ele>319.2</ele>
        <time>2015-06-08T21:29:53Z</time>
      </trkpt>
      <trkpt lat="57.651610511535" lon="14.679288441381">
        <ele>319</ele>
        <time>2015-06-08T21:29:54Z</time>
      </trkpt>
      <trkpt lat="57.651638339443" lon="14.679278969834">
        <ele>318.8</ele>
        <time>2015-06-08T21:29:55Z</time>
      </trkpt>
      <trkpt lat="57.651661473487" lon="14.679275365617">
        <ele>319</ele>
        <time>2015-06-08T21:29:56Z</time>
      </trkpt>
      <trkpt lat="57.651692570336" lon="14.679268660097">
        <ele>319.2</ele>
        <time>2015-06-08T21:29:57Z</time>
      </trkpt>
      <trkpt lat="57.651718554226" lon="14.679258015084">
        <ele>318.6</ele>
        <time>2015-06-08T21:29:58Z</time>
      </trkpt>
      <trkpt lat="57.651743867564" lon="14.679251896297">
        <ele>319</ele>
        <time>2015-06-08T21:29:59Z</time>
      </trkpt>
      <trkpt lat="57.651770689644" lon="14.679246699519">
        <ele>319.2</ele>
        <time>2015-06-08T21:30:00Z</time>
      </trkpt>
      <trkpt lat="57.651800193932" lon="14.679241838017">
        <ele>319.2</ele>
        <time>2015-06-08T21:30:01Z</time>
      </trkpt>
      <trkpt lat="57.651829865858" lon="14.679235635411">
        <ele>319.4</ele>
        <time>2015-06-08T21:30:02Z</time>
      </trkpt>
      <trkpt lat="57.651855179196" lon="14.679227085873">
        <ele>319.4</ele>
        <time>2015-06-08T21:30:03Z</time>
      </trkpt>
      <trkpt lat="57.65188082781" lon="14.679221302362">
        <ele>319.4</ele>
        <time>2015-06-08T21:30:04Z</time>
      </trkpt>
      <trkpt lat="57.651906057329" lon="14.679215518851">
        <ele>319.6</ele>
        <time>2015-06-08T21:30:05Z</time>
      </trkpt>
      <trkpt lat="57.651929023735" lon="14.67920386801">
        <ele>319.8</ele>
        <time>2015-06-08T21:30:06Z</time>
      </trkpt>
      <trkpt lat="57.65195291215" lon="14.679198755051">
        <ele>320.2</ele>
        <time>2015-06-08T21:30:07Z</time>
      </trkpt>
      <trkpt lat="57.651980823877" lon="14.679190540789">
        <ele>320.4</ele>
        <time>2015-06-08T21:30:08Z</time>
      </trkpt>
      <trkpt lat="57.652006304853" lon="14.679180985423">
        <ele>321</ele>
        <time>2015-06-08T21:30:09Z</time>
      </trkpt>
      <trkpt lat="57.652035390046" lon="14.679182158889">
        <ele>321.2</ele>
        <time>2015-06-08T21:30:10Z</time>
      </trkpt>
      <trkpt lat="57.652064475239" lon="14.679176375378">
        <ele>321.8</ele>
        <time>2015-06-08T21:30:11Z</time>
      </trkpt>
      <trkpt lat="57.652097835201" lon="14.679169418401">
        <ele>322.4</ele>
        <time>2015-06-08T21:30:12Z</time>
      </trkpt>
      <trkpt lat="57.652124489643" lon="14.679167909659">
        <ele>322.6</ele>
        <time>2015-06-08T21:30:13Z</time>
      </trkpt>
      <trkpt lat="57.652145360574" lon="14.679168161116">
        <ele>322.8</ele>
        <time>2015-06-08T21:30:14Z</time>
      </trkpt>
      <trkpt lat="57.652173104663" lon="14.679158102836">
        <ele>322.8</ele>
        <time>2015-06-08T21:30:15Z</time>
      </trkpt>
      <trkpt lat="57.652198082725" lon="14.679146787271">
        <ele>322.8</ele>
        <time>2015-06-08T21:30:16Z</time>
      </trkpt>
      <trkpt lat="57.652214175973" lon="14.679145613805">
        <ele>322.8</ele>
        <time>2015-06-08T21:30:17Z</time>
      </trkpt>
      <trkpt lat="57.652241668605" lon="14.679140836122">
        <ele>323</ele>
        <time>2015-06-08T21:30:18Z</time>
      </trkpt>
      <trkpt lat="57.652268406866" lon="14.679135890801">
        <ele>322.8</ele>
        <time>2015-06-08T21:30:19Z</time>
      </trkpt>
      <trkpt lat="57.652304868131" lon="14.679124659055">
        <ele>323</ele>
        <time>2015-06-08T21:30:20Z</time>
      </trkpt>
      <trkpt lat="57.652332696039" lon="14.679107811436">
        <ele>323</ele>
        <time>2015-06-08T21:30:21Z</time>
      </trkpt>
      <trkpt lat="57.65235608154" lon="14.679085850858">
        <ele>323.2</ele>
        <time>2015-06-08T21:30:22Z</time>
      </trkpt>
      <trkpt lat="57.652383825629" lon="14.679070009067">
        <ele>323.4</ele>
        <time>2015-06-08T21:30:23Z</time>
      </trkpt>
      <trkpt lat="57.652405870026" lon="14.679052574715">
        <ele>323.2</ele>
        <time>2015-06-08T21:30:24Z</time>
      </trkpt>
      <trkpt lat="57.652423052921" lon="14.67904125915">
        <ele>322.8</ele>
        <time>2015-06-08T21:30:25Z</time>
      </trkpt>
      <trkpt lat="57.652444342947" lon="14.679025417359">
        <ele>322.6</ele>
        <time>2015-06-08T21:30:26Z</time>
      </trkpt>
      <trkpt lat="57.652463872774" lon="14.679012173957">
        <ele>322.6</ele>
        <time>2015-06-08T21:30:27Z</time>
      </trkpt>
      <trkpt lat="57.652491365406" lon="14.67899851146">
        <ele>322.4</ele>
        <time>2015-06-08T21:30:28Z</time>
      </trkpt>
      <trkpt lat="57.652510811414" lon="14.678982753488">
        <ele>322.2</ele>
        <time>2015-06-08T21:30:29Z</time>
      </trkpt>
      <trkpt lat="57.652538974598" lon="14.678967749887">
        <ele>322.2</ele>
        <time>2015-06-08T21:30:30Z</time>
      </trkpt>
      <trkpt lat="57.652565545221" lon="14.678956769598">
        <ele>322</ele>
        <time>2015-06-08T21:30:31Z</time>
      </trkpt>
      <trkpt lat="57.652587002885" lon="14.678939083789">
        <ele>321.8</ele>
        <time>2015-06-08T21:30:32Z</time>
      </trkpt>
      <trkpt lat="57.652614160241" lon="14.678925253654">
        <ele>321.6</ele>
        <time>2015-06-08T21:30:33Z</time>
      </trkpt>
      <trkpt lat="57.652643496891" lon="14.678901616696">
        <ele>322</ele>
        <time>2015-06-08T21:30:34Z</time>
      </trkpt>
      <trkpt lat="57.652667217668" lon="14.678897258108">
        <ele>322.2</ele>
        <time>2015-06-08T21:30:35Z</time>
      </trkpt>
      <trkpt lat="57.652696889594" lon="14.678881583955">
        <ele>322.6</ele>
        <time>2015-06-08T21:30:36Z</time>
      </trkpt>
      <trkpt lat="57.65272404695" lon="14.678869346381">
        <ele>322.6</ele>
        <time>2015-06-08T21:30:37Z</time>
      </trkpt>
      <trkpt lat="57.652754137971" lon="14.678845541785">
        <ele>322.6</ele>
        <time>2015-06-08T21:30:38Z</time>
      </trkpt>
      <trkpt lat="57.652783809897" lon="14.678833807125">
        <ele>322.4</ele>
        <time>2015-06-08T21:30:39Z</time>
      </trkpt>
      <trkpt lat="57.652806692484" lon="14.678806733588">
        <ele>322.2</ele>
        <time>2015-06-08T21:30:40Z</time>
      </trkpt>
      <trkpt lat="57.652839130437" lon="14.6787772293">
        <ele>322.4</ele>
        <time>2015-06-08T21:30:41Z</time>
      </trkpt>
      <trkpt lat="57.652863437947" lon="14.678750658677">
        <ele>322</ele>
        <time>2015-06-08T21:30:42Z</time>
      </trkpt>
      <trkpt lat="57.652888751285" lon="14.678721992579">
        <ele>322.4</ele>
        <time>2015-06-08T21:30:43Z</time>
      </trkpt>
      <trkpt lat="57.652922530342" lon="14.678698942354">
        <ele>322.6</ele>
        <time>2015-06-08T21:30:44Z</time>
      </trkpt>
      <trkpt lat="57.652945412929" lon="14.678664408926">
        <ele>322.4</ele>
        <time>2015-06-08T21:30:45Z</time>
      </trkpt>
      <trkpt lat="57.652976509778" lon="14.678635659009">
        <ele>322.8</ele>
        <time>2015-06-08T21:30:46Z</time>
      </trkpt>
      <trkpt lat="57.652997045433" lon="14.678621828874">
        <ele>322.8</ele>
        <time>2015-06-08T21:30:47Z</time>
      </trkpt>
      <trkpt lat="57.653027220273" lon="14.678592576043">
        <ele>322.8</ele>
        <time>2015-06-08T21:30:48Z</time>
      </trkpt>
      <trkpt lat="57.653057478932" lon="14.678571369836">
        <ele>322.8</ele>
        <time>2015-06-08T21:30:49Z</time>
      </trkpt>
      <trkpt lat="57.653077260216" lon="14.678547062326">
        <ele>322.6</ele>
        <time>2015-06-08T21:30:50Z</time>
      </trkpt>
      <trkpt lat="57.653098298785" lon="14.678522838635">
        <ele>323</ele>
        <time>2015-06-08T21:30:51Z</time>
      </trkpt>
      <trkpt lat="57.653116990422" lon="14.678497022383">
        <ele>322.8</ele>
        <time>2015-06-08T21:30:52Z</time>
      </trkpt>
      <trkpt lat="57.653137777534" lon="14.678466679905">
        <ele>322.8</ele>
        <time>2015-06-08T21:30:53Z</time>
      </trkpt>
      <trkpt lat="57.65316744946" lon="14.678435666875">
        <ele>322.6</ele>
        <time>2015-06-08T21:30:54Z</time>
      </trkpt>
      <trkpt lat="57.653194187721" lon="14.678408593338">
        <ele>322.4</ele>
        <time>2015-06-08T21:30:55Z</time>
      </trkpt>
      <trkpt lat="57.653218998145" lon="14.678384202009">
        <ele>322.6</ele>
        <time>2015-06-08T21:30:56Z</time>
      </trkpt>
      <trkpt lat="57.653244982035" lon="14.678361067965">
        <ele>322.6</ele>
        <time>2015-06-08T21:30:57Z</time>
      </trkpt>
      <trkpt lat="57.653268786631" lon="14.678335251713">
        <ele>322.6</ele>
        <time>2015-06-08T21:30:58Z</time>
      </trkpt>
      <trkpt lat="57.653292088313" lon="14.678311279479">
        <ele>322.6</ele>
        <time>2015-06-08T21:30:59Z</time>
      </trkpt>
      <trkpt lat="57.653292004494" lon="14.678307088529">
        <ele>322.2</ele>
        <time>2015-06-08T21:31:00Z</time>
      </trkpt>
      <trkpt lat="57.653343217903" lon="14.67825922788">
        <ele>321.4</ele>
        <time>2015-06-08T21:31:01Z</time>
      </trkpt>
      <trkpt lat="57.653370459078" lon="14.678219078579">
        <ele>321.2</ele>
        <time>2015-06-08T21:31:02Z</time>
      </trkpt>
      <trkpt lat="57.653394850407" lon="14.678198123829">
        <ele>321.2</ele>
        <time>2015-06-08T21:31:03Z</time>
      </trkpt>
      <trkpt lat="57.653426366351" lon="14.678171050292">
        <ele>321.4</ele>
        <time>2015-06-08T21:31:04Z</time>
      </trkpt>
      <trkpt lat="57.65345075768" lon="14.67813769033">
        <ele>321.2</ele>
        <time>2015-06-08T21:31:05Z</time>
      </trkpt>
      <trkpt lat="57.653473472629" lon="14.678094523545">
        <ele>321.2</ele>
        <time>2015-06-08T21:31:06Z</time>
      </trkpt>
      <trkpt lat="57.653494930293" lon="14.678052111131">
        <ele>321</ele>
        <time>2015-06-08T21:31:07Z</time>
      </trkpt>
      <trkpt lat="57.653515046853" lon="14.678020092273">
        <ele>320.8</ele>
        <time>2015-06-08T21:31:08Z</time>
      </trkpt>
      <trkpt lat="57.653545724607" lon="14.67798011061">
        <ele>320.8</ele>
        <time>2015-06-08T21:31:09Z</time>
      </trkpt>
      <trkpt lat="57.653570283574" lon="14.677948510847">
        <ele>320.6</ele>
        <time>2015-06-08T21:31:10Z</time>
      </trkpt>
      <trkpt lat="57.653592495609" lon="14.677916575808">
        <ele>320.8</ele>
        <time>2015-06-08T21:31:11Z</time>
      </trkpt>
      <trkpt lat="57.65361504292" lon="14.677883299665">
        <ele>320.8</ele>
        <time>2015-06-08T21:31:12Z</time>
      </trkpt>
      <trkpt lat="57.653635243299" lon="14.677852957187">
        <ele>320.6</ele>
        <time>2015-06-08T21:31:13Z</time>
      </trkpt>
      <trkpt lat="57.653663825578" lon="14.677822279433">
        <ele>320.6</ele>
        <time>2015-06-08T21:31:14Z</time>
      </trkpt>
      <trkpt lat="57.653682768672" lon="14.677786153444">
        <ele>320.6</ele>
        <time>2015-06-08T21:31:15Z</time>
      </trkpt>
      <trkpt lat="57.653706154173" lon="14.677756565337">
        <ele>320.6</ele>
        <time>2015-06-08T21:31:16Z</time>
      </trkpt>
      <trkpt lat="57.653725181086" lon="14.677707615041">
        <ele>320.6</ele>
        <time>2015-06-08T21:31:17Z</time>
      </trkpt>
      <trkpt lat="57.653740687601" lon="14.677654389976">
        <ele>320.6</ele>
        <time>2015-06-08T21:31:18Z</time>
      </trkpt>
      <trkpt lat="57.653760133609" lon="14.677609295354">
        <ele>320.2</ele>
        <time>2015-06-08T21:31:19Z</time>
      </trkpt>
      <trkpt lat="57.653774215201" lon="14.677569900424">
        <ele>319.8</ele>
        <time>2015-06-08T21:31:20Z</time>
      </trkpt>
      <trkpt lat="57.653795756684" lon="14.677524219069">
        <ele>320</ele>
        <time>2015-06-08T21:31:21Z</time>
      </trkpt>
      <trkpt lat="57.653809000086" lon="14.677489182727">
        <ele>319.8</ele>
        <time>2015-06-08T21:31:22Z</time>
      </trkpt>
      <trkpt lat="57.653826434438" lon="14.67744869815">
        <ele>319.6</ele>
        <time>2015-06-08T21:31:23Z</time>
      </trkpt>
      <trkpt lat="57.653850490491" lon="14.677411985428">
        <ele>319.8</ele>
        <time>2015-06-08T21:31:24Z</time>
      </trkpt>
      <trkpt lat="57.653867757205" lon="14.677374769792">
        <ele>320</ele>
        <time>2015-06-08T21:31:25Z</time>
      </trkpt>
      <trkpt lat="57.65388577829" lon="14.677331519188">
        <ele>320.2</ele>
        <time>2015-06-08T21:31:26Z</time>
      </trkpt>
      <trkpt lat="57.653898770235" lon="14.677282401254">
        <ele>320.6</ele>
        <time>2015-06-08T21:31:27Z</time>
      </trkpt>
      <trkpt lat="57.653903967013" lon="14.677239402107">
        <ele>320.8</ele>
        <time>2015-06-08T21:31:28Z</time>
      </trkpt>
      <trkpt lat="57.653912516551" lon="14.677185925585">
        <ele>321.4</ele>
        <time>2015-06-08T21:31:29Z</time>
      </trkpt>
      <trkpt lat="57.6539100858" lon="14.677136472375">
        <ele>321.8</ele>
        <time>2015-06-08T21:31:30Z</time>
      </trkpt>
      <trkpt lat="57.653906565402" lon="14.677094814332">
        <ele>322.2</ele>
        <time>2015-06-08T21:31:31Z</time>
      </trkpt>
      <trkpt lat="57.653901452443" lon="14.677042595095">
        <ele>322.2</ele>
        <time>2015-06-08T21:31:32Z</time>
      </trkpt>
      <trkpt lat="57.65390421847" lon="14.676991968419">
        <ele>322.6</ele>
        <time>2015-06-08T21:31:33Z</time>
      </trkpt>
      <trkpt lat="57.653912432732" lon="14.676929271807">
        <ele>323.2</ele>
        <time>2015-06-08T21:31:34Z</time>
      </trkpt>
      <trkpt lat="57.653925759953" lon="14.676888451954">
        <ele>323</ele>
        <time>2015-06-08T21:31:35Z</time>
      </trkpt>
      <trkpt lat="57.65394277521" lon="14.676842854418">
        <ele>322.8</ele>
        <time>2015-06-08T21:31:36Z</time>
      </trkpt>
      <trkpt lat="57.65395870082" lon="14.676803710945">
        <ele>322.8</ele>
        <time>2015-06-08T21:31:37Z</time>
      </trkpt>
      <trkpt lat="57.653969848747" lon="14.67676473511">
        <ele>322.4</ele>
        <time>2015-06-08T21:31:38Z</time>
      </trkpt>
      <trkpt lat="57.653986444909" lon="14.67671779647">
        <ele>322.2</ele>
        <time>2015-06-08T21:31:39Z</time>
      </trkpt>
      <trkpt lat="57.654003627804" lon="14.67668007792">
        <ele>322</ele>
        <time>2015-06-08T21:31:40Z</time>
      </trkpt>
      <trkpt lat="57.654018379948" lon="14.676650489813">
        <ele>322</ele>
        <time>2015-06-08T21:31:41Z</time>
      </trkpt>
      <trkpt lat="57.654035311386" lon="14.676615285833">
        <ele>322</ele>
        <time>2015-06-08T21:31:42Z</time>
      </trkpt>
      <trkpt lat="57.654052242824" lon="14.67657949512">
        <ele>321.8</ele>
        <time>2015-06-08T21:31:43Z</time>
      </trkpt>
      <trkpt lat="57.654068755167" lon="14.67654010019">
        <ele>321.8</ele>
        <time>2015-06-08T21:31:44Z</time>
      </trkpt>
      <trkpt lat="57.6540861057" lon="14.676502716916">
        <ele>321.4</ele>
        <time>2015-06-08T21:31:45Z</time>
      </trkpt>
      <trkpt lat="57.654101109301" lon="14.676462232339">
        <ele>321.4</ele>
        <time>2015-06-08T21:31:46Z</time>
      </trkpt>
      <trkpt lat="57.654115358531" lon="14.676426273988">
        <ele>321.6</ele>
        <time>2015-06-08T21:31:47Z</time>
      </trkpt>
      <trkpt lat="57.654131870874" lon="14.676383023384">
        <ele>321.6</ele>
        <time>2015-06-08T21:31:48Z</time>
      </trkpt>
      <trkpt lat="57.654149221407" lon="14.676343544635">
        <ele>321.4</ele>
        <time>2015-06-08T21:31:49Z</time>
      </trkpt>
      <trkpt lat="57.654164560284" lon="14.676308173017">
        <ele>321.6</ele>
        <time>2015-06-08T21:31:50Z</time>
      </trkpt>
      <trkpt lat="57.65418417393" lon="14.676265006232">
        <ele>321.4</ele>
        <time>2015-06-08T21:31:51Z</time>
      </trkpt>
      <trkpt lat="57.654199680445" lon="14.676234915211">
        <ele>321.6</ele>
        <time>2015-06-08T21:31:52Z</time>
      </trkpt>
      <trkpt lat="57.654212085657" lon="14.676199627412">
        <ele>321.6</ele>
        <time>2015-06-08T21:31:53Z</time>
      </trkpt>
      <trkpt lat="57.654231447846" lon="14.676158975197">
        <ele>321.8</ele>
        <time>2015-06-08T21:31:54Z</time>
      </trkpt>
      <trkpt lat="57.654244104515" lon="14.676119077353">
        <ele>321.6</ele>
        <time>2015-06-08T21:31:55Z</time>
      </trkpt>
      <trkpt lat="57.65426128741" lon="14.676078760414">
        <ele>321.8</ele>
        <time>2015-06-08T21:31:56Z</time>
      </trkpt>
      <trkpt lat="57.654276626287" lon="14.676037772923">
        <ele>322</ele>
        <time>2015-06-08T21:31:57Z</time>
      </trkpt>
      <trkpt lat="57.654290372603" lon="14.67600617316">
        <ele>322</ele>
        <time>2015-06-08T21:31:58Z</time>
      </trkpt>
      <trkpt lat="57.654304621833" lon="14.675971975008">
        <ele>322</ele>
        <time>2015-06-08T21:31:59Z</time>
      </trkpt>
      <trkpt lat="57.654324235479" lon="14.675932244802">
        <ele>322.2</ele>
        <time>2015-06-08T21:32:00Z</time>
      </trkpt>
      <trkpt lat="57.65434007727" lon="14.675889832388">
        <ele>322</ele>
        <time>2015-06-08T21:32:01Z</time>
      </trkpt>
      <trkpt lat="57.654354158862" lon="14.675851024191">
        <ele>322</ele>
        <time>2015-06-08T21:32:02Z</time>
      </trkpt>
      <trkpt lat="57.654371174119" lon="14.675811210166">
        <ele>322</ele>
        <time>2015-06-08T21:32:03Z</time>
      </trkpt>
      <trkpt lat="57.654386848272" lon="14.675775335634">
        <ele>321.6</ele>
        <time>2015-06-08T21:32:04Z</time>
      </trkpt>
      <trkpt lat="57.654398331475" lon="14.675751698676">
        <ele>321.8</ele>
        <time>2015-06-08T21:32:05Z</time>
      </trkpt>
      <trkpt lat="57.654420627329" lon="14.675704340941">
        <ele>322</ele>
        <time>2015-06-08T21:32:06Z</time>
      </trkpt>
      <trkpt lat="57.654432864903" lon="14.675666957667">
        <ele>321.8</ele>
        <time>2015-06-08T21:32:07Z</time>
      </trkpt>
      <trkpt lat="57.654451221264" lon="14.675634268257">
        <ele>321.6</ele>
        <time>2015-06-08T21:32:08Z</time>
      </trkpt>
      <trkpt lat="57.654466392503" lon="14.675593196947">
        <ele>321.8</ele>
        <time>2015-06-08T21:32:09Z</time>
      </trkpt>
      <trkpt lat="57.654482904846" lon="14.675553634379">
        <ele>321.6</ele>
        <time>2015-06-08T21:32:10Z</time>
      </trkpt>
      <trkpt lat="57.654497154076" lon="14.675520525874">
        <ele>321.6</ele>
        <time>2015-06-08T21:32:11Z</time>
      </trkpt>
      <trkpt lat="57.654514923704" lon="14.675486327722">
        <ele>321.4</ele>
        <time>2015-06-08T21:32:12Z</time>
      </trkpt>
      <trkpt lat="57.654529340572" lon="14.675455817606">
        <ele>321.4</ele>
        <time>2015-06-08T21:32:13Z</time>
      </trkpt>
      <trkpt lat="57.654547361657" lon="14.675420194531">
        <ele>321.4</ele>
        <time>2015-06-08T21:32:14Z</time>
      </trkpt>
      <trkpt lat="57.654564125457" lon="14.675383062714">
        <ele>321.2</ele>
        <time>2015-06-08T21:32:15Z</time>
      </trkpt>
      <trkpt lat="57.654579631972" lon="14.675346014716">
        <ele>321.4</ele>
        <time>2015-06-08T21:32:16Z</time>
      </trkpt>
      <trkpt lat="57.654597066324" lon="14.675308044709">
        <ele>321.4</ele>
        <time>2015-06-08T21:32:17Z</time>
      </trkpt>
      <trkpt lat="57.654611818468" lon="14.675272589272">
        <ele>321.2</ele>
        <time>2015-06-08T21:32:18Z</time>
      </trkpt>
      <trkpt lat="57.654629336639" lon="14.675226740279">
        <ele>321.4</ele>
        <time>2015-06-08T21:32:19Z</time>
      </trkpt>
      <trkpt lat="57.654649704656" lon="14.675191368661">
        <ele>321.4</ele>
        <time>2015-06-08T21:32:20Z</time>
      </trkpt>
      <trkpt lat="57.654664875895" lon="14.675155494129">
        <ele>321.2</ele>
        <time>2015-06-08T21:32:21Z</time>
      </trkpt>
      <trkpt lat="57.654680298591" lon="14.67511936814">
        <ele>321.2</ele>
        <time>2015-06-08T21:32:22Z</time>
      </trkpt>
      <trkpt lat="57.65469966078" lon="14.675082320142">
        <ele>321</ele>
        <time>2015-06-08T21:32:23Z</time>
      </trkpt>
      <trkpt lat="57.654710724888" lon="14.675036974063">
        <ele>320.8</ele>
        <time>2015-06-08T21:32:24Z</time>
      </trkpt>
      <trkpt lat="57.654731679638" lon="14.67499531602">
        <ele>320.8</ele>
        <time>2015-06-08T21:32:25Z</time>
      </trkpt>
      <trkpt lat="57.654749616904" lon="14.674957429832">
        <ele>321</ele>
        <time>2015-06-08T21:32:26Z</time>
      </trkpt>
      <trkpt lat="57.654766967437" lon="14.674922561128">
        <ele>321</ele>
        <time>2015-06-08T21:32:27Z</time>
      </trkpt>
      <trkpt lat="57.654784066513" lon="14.674885261673">
        <ele>320.8</ele>
        <time>2015-06-08T21:32:28Z</time>
      </trkpt>
      <trkpt lat="57.654802674331" lon="14.67484947096">
        <ele>320.6</ele>
        <time>2015-06-08T21:32:29Z</time>
      </trkpt>
      <trkpt lat="57.654820192502" lon="14.674811500953">
        <ele>320.2</ele>
        <time>2015-06-08T21:32:30Z</time>
      </trkpt>
      <trkpt lat="57.654842404537" lon="14.674774117679">
        <ele>320</ele>
        <time>2015-06-08T21:32:31Z</time>
      </trkpt>
      <trkpt lat="57.654857994871" lon="14.674738243147">
        <ele>320</ele>
        <time>2015-06-08T21:32:32Z</time>
      </trkpt>
      <trkpt lat="57.654878027612" lon="14.674697507113">
        <ele>320.2</ele>
        <time>2015-06-08T21:32:33Z</time>
      </trkpt>
      <trkpt lat="57.654890181367" lon="14.674672277594">
        <ele>320</ele>
        <time>2015-06-08T21:32:34Z</time>
      </trkpt>
      <trkpt lat="57.654912728678" lon="14.674622908203">
        <ele>320.4</ele>
        <time>2015-06-08T21:32:35Z</time>
      </trkpt>
      <trkpt lat="57.654935024532" lon="14.674571946251">
        <ele>320.6</ele>
        <time>2015-06-08T21:32:36Z</time>
      </trkpt>
      <trkpt lat="57.65495111778" lon="14.674535317348">
        <ele>320.6</ele>
        <time>2015-06-08T21:32:37Z</time>
      </trkpt>
      <trkpt lat="57.654967797761" lon="14.674501370653">
        <ele>320.2</ele>
        <time>2015-06-08T21:32:38Z</time>
      </trkpt>
      <trkpt lat="57.654988501054" lon="14.674464490293">
        <ele>320.2</ele>
        <time>2015-06-08T21:32:39Z</time>
      </trkpt>
      <trkpt lat="57.655005013397" lon="14.674430208322">
        <ele>320.4</ele>
        <time>2015-06-08T21:32:40Z</time>
      </trkpt>
      <trkpt lat="57.65502571669" lon="14.674391148668">
        <ele>320.6</ele>
        <time>2015-06-08T21:32:41Z</time>
      </trkpt>
      <trkpt lat="57.655044575965" lon="14.674346976055">
        <ele>320.6</ele>
        <time>2015-06-08T21:32:42Z</time>
      </trkpt>
      <trkpt lat="57.655061926498" lon="14.674311436799">
        <ele>320.6</ele>
        <time>2015-06-08T21:32:43Z</time>
      </trkpt>
      <trkpt lat="57.655083970895" lon="14.674273299154">
        <ele>320.6</ele>
        <time>2015-06-08T21:32:44Z</time>
      </trkpt>
      <trkpt lat="57.655103500722" lon="14.674238262812">
        <ele>320.4</ele>
        <time>2015-06-08T21:32:45Z</time>
      </trkpt>
      <trkpt lat="57.655125209843" lon="14.674197275321">
        <ele>320.4</ele>
        <time>2015-06-08T21:32:46Z</time>
      </trkpt>
      <trkpt lat="57.655142644195" lon="14.674161987522">
        <ele>320.4</ele>
        <time>2015-06-08T21:32:47Z</time>
      </trkpt>
      <trkpt lat="57.655158485986" lon="14.674126364447">
        <ele>320.4</ele>
        <time>2015-06-08T21:32:48Z</time>
      </trkpt>
      <trkpt lat="57.655181284754" lon="14.674083784395">
        <ele>320.6</ele>
        <time>2015-06-08T21:32:49Z</time>
      </trkpt>
      <trkpt lat="57.655199473477" lon="14.674045060017">
        <ele>320.4</ele>
        <time>2015-06-08T21:32:50Z</time>
      </trkpt>
      <trkpt lat="57.655214812354" lon="14.674011029503">
        <ele>320.2</ele>
        <time>2015-06-08T21:32:51Z</time>
      </trkpt>
      <trkpt lat="57.655232246706" lon="14.673974903514">
        <ele>320</ele>
        <time>2015-06-08T21:32:52Z</time>
      </trkpt>
      <trkpt lat="57.655249094325" lon="14.673939364258">
        <ele>320</ele>
        <time>2015-06-08T21:32:53Z</time>
      </trkpt>
      <trkpt lat="57.655243478452" lon="14.673945147769">
        <ele>319.8</ele>
        <time>2015-06-08T21:32:54Z</time>
      </trkpt>
      <trkpt lat="57.655281029364" lon="14.673871135592">
        <ele>319.6</ele>
        <time>2015-06-08T21:32:55Z</time>
      </trkpt>
      <trkpt lat="57.655304750141" lon="14.673836434526">
        <ele>319.2</ele>
        <time>2015-06-08T21:32:56Z</time>
      </trkpt>
      <trkpt lat="57.655328387099" lon="14.673811875559">
        <ele>319.2</ele>
        <time>2015-06-08T21:32:57Z</time>
      </trkpt>
      <trkpt lat="57.655428131709" lon="14.673784047651">
        <ele>318.4</ele>
        <time>2015-06-08T21:32:59Z</time>
      </trkpt>
      <trkpt lat="57.655428131709" lon="14.673784047651">
        <ele>318.4</ele>
        <time>2015-06-08T21:33:01Z</time>
      </trkpt>
      <trkpt lat="57.655453864142" lon="14.673779689063">
        <ele>318.4</ele>
        <time>2015-06-08T21:33:02Z</time>
      </trkpt>
      <trkpt lat="57.655425952415" lon="14.673778683235">
        <ele>318.4</ele>
        <time>2015-06-08T21:33:03Z</time>
      </trkpt>
      <trkpt lat="57.655615718631" lon="14.673764769281">
        <ele>317.2</ele>
        <time>2015-06-08T21:33:06Z</time>
      </trkpt>
      <trkpt lat="57.655615718631" lon="14.673764769281">
        <ele>317.2</ele>
        <time>2015-06-08T21:33:08Z</time>
      </trkpt>
      <trkpt lat="57.65564262453" lon="14.673764936919">
        <ele>317.2</ele>
        <time>2015-06-08T21:33:09Z</time>
      </trkpt>
      <trkpt lat="57.655649497688" lon="14.673739958857">
        <ele>317.2</ele>
        <time>2015-06-08T21:33:10Z</time>
      </trkpt>
      <trkpt lat="57.655649497688" lon="14.673739958857">
        <ele>317.2</ele>
        <time>2015-06-08T21:33:12Z</time>
      </trkpt>
      <trkpt lat="57.655672715551" lon="14.673732331328">
        <ele>317.4</ele>
        <time>2015-06-08T21:33:13Z</time>
      </trkpt>
      <trkpt lat="57.655634494087" lon="14.673738114839">
        <ele>317.2</ele>
        <time>2015-06-08T21:33:14Z</time>
      </trkpt>
      <trkpt lat="57.655686461867" lon="14.673657732418">
        <ele>317</ele>
        <time>2015-06-08T21:33:15Z</time>
      </trkpt>
      <trkpt lat="57.655716301431" lon="14.673580199843">
        <ele>317.2</ele>
        <time>2015-06-08T21:33:16Z</time>
      </trkpt>
      <trkpt lat="57.655750331945" lon="14.673502248173">
        <ele>317</ele>
        <time>2015-06-08T21:33:17Z</time>
      </trkpt>
      <trkpt lat="57.65578679321" lon="14.673431085842">
        <ele>316.6</ele>
        <time>2015-06-08T21:33:18Z</time>
      </trkpt>
      <trkpt lat="57.655813699109" lon="14.673380459166">
        <ele>316.6</ele>
        <time>2015-06-08T21:33:19Z</time>
      </trkpt>
      <trkpt lat="57.655833145117" lon="14.673340477503">
        <ele>316.4</ele>
        <time>2015-06-08T21:33:20Z</time>
      </trkpt>
      <trkpt lat="57.655848903089" lon="14.673303429505">
        <ele>316.4</ele>
        <time>2015-06-08T21:33:21Z</time>
      </trkpt>
      <trkpt lat="57.655862062672" lon="14.673264202213">
        <ele>316.4</ele>
        <time>2015-06-08T21:33:22Z</time>
      </trkpt>
      <trkpt lat="57.655878407377" lon="14.67322673512">
        <ele>316.4</ele>
        <time>2015-06-08T21:33:23Z</time>
      </trkpt>
      <trkpt lat="57.655890309675" lon="14.673197901384">
        <ele>316.4</ele>
        <time>2015-06-08T21:33:25Z</time>
      </trkpt>
      <trkpt lat="57.655926435664" lon="14.673120452628">
        <ele>316.2</ele>
        <time>2015-06-08T21:33:26Z</time>
      </trkpt>
      <trkpt lat="57.655952503373" lon="14.673065132088">
        <ele>316</ele>
        <time>2015-06-08T21:33:27Z</time>
      </trkpt>
      <trkpt lat="57.65596700406" lon="14.673031353031">
        <ele>316</ele>
        <time>2015-06-08T21:33:28Z</time>
      </trkpt>
      <trkpt lat="57.655980750376" lon="14.672994640309">
        <ele>316.2</ele>
        <time>2015-06-08T21:33:29Z</time>
      </trkpt>
      <trkpt lat="57.655991814484" lon="14.672963375822">
        <ele>316.2</ele>
        <time>2015-06-08T21:33:30Z</time>
      </trkpt>
      <trkpt lat="57.655998771461" lon="14.672923058883">
        <ele>316</ele>
        <time>2015-06-08T21:33:31Z</time>
      </trkpt>
      <trkpt lat="57.656002543316" lon="14.672886010885">
        <ele>315.8</ele>
        <time>2015-06-08T21:33:32Z</time>
      </trkpt>
      <trkpt lat="57.656006315171" lon="14.672859691719">
        <ele>315.8</ele>
        <time>2015-06-08T21:33:33Z</time>
      </trkpt>
      <trkpt lat="57.656013272148" lon="14.672816692572">
        <ele>316</ele>
        <time>2015-06-08T21:33:34Z</time>
      </trkpt>
      <trkpt lat="57.656019390935" lon="14.672790541044">
        <ele>315.8</ele>
        <time>2015-06-08T21:33:35Z</time>
      </trkpt>
      <trkpt lat="57.656030790319" lon="14.672748463906">
        <ele>315.8</ele>
        <time>2015-06-08T21:33:36Z</time>
      </trkpt>
      <trkpt lat="57.656037328201" lon="14.672722731473">
        <ele>315.6</ele>
        <time>2015-06-08T21:33:37Z</time>
      </trkpt>
      <trkpt lat="57.656049649594" lon="14.672695490298">
        <ele>315.4</ele>
        <time>2015-06-08T21:33:38Z</time>
      </trkpt>
      <trkpt lat="57.656055684562" lon="14.672673278263">
        <ele>315.4</ele>
        <time>2015-06-08T21:33:39Z</time>
      </trkpt>
      <trkpt lat="57.656064569376" lon="14.67265508954">
        <ele>315.4</ele>
        <time>2015-06-08T21:33:40Z</time>
      </trkpt>
      <trkpt lat="57.656072448362" lon="14.672640337396">
        <ele>315.2</ele>
        <time>2015-06-08T21:33:41Z</time>
      </trkpt>
      <trkpt lat="57.656083763927" lon="14.672620220836">
        <ele>315.2</ele>
        <time>2015-06-08T21:33:42Z</time>
      </trkpt>
      <trkpt lat="57.656087368144" lon="14.672604965778">
        <ele>314.8</ele>
        <time>2015-06-08T21:33:43Z</time>
      </trkpt>
      <trkpt lat="57.65609357075" lon="14.67258384339">
        <ele>314.6</ele>
        <time>2015-06-08T21:33:44Z</time>
      </trkpt>
      <trkpt lat="57.65610362903" lon="14.672571438178">
        <ele>314.4</ele>
        <time>2015-06-08T21:33:45Z</time>
      </trkpt>
      <trkpt lat="57.656113435853" lon="14.672543442632">
        <ele>314.6</ele>
        <time>2015-06-08T21:33:46Z</time>
      </trkpt>
      <trkpt lat="57.656124248504" lon="14.672525673004">
        <ele>314.8</ele>
        <time>2015-06-08T21:33:47Z</time>
      </trkpt>
      <trkpt lat="57.65613045111" lon="14.672507903376">
        <ele>314.6</ele>
        <time>2015-06-08T21:33:48Z</time>
      </trkpt>
      <trkpt lat="57.656139084467" lon="14.672486864807">
        <ele>314.6</ele>
        <time>2015-06-08T21:33:49Z</time>
      </trkpt>
      <trkpt lat="57.656150986765" lon="14.67246733498">
        <ele>314.4</ele>
        <time>2015-06-08T21:33:50Z</time>
      </trkpt>
      <trkpt lat="57.65616397871" lon="14.672440848176">
        <ele>314.4</ele>
        <time>2015-06-08T21:33:51Z</time>
      </trkpt>
      <trkpt lat="57.656173031162" lon="14.672418552322">
        <ele>314.2</ele>
        <time>2015-06-08T21:33:52Z</time>
      </trkpt>
      <trkpt lat="57.656179233768" lon="14.67239776521">
        <ele>314.2</ele>
        <time>2015-06-08T21:33:53Z</time>
      </trkpt>
      <trkpt lat="57.65619499174" lon="14.672374044433">
        <ele>314.4</ele>
        <time>2015-06-08T21:33:54Z</time>
      </trkpt>
      <trkpt lat="57.656206391124" lon="14.67235082657">
        <ele>314.2</ele>
        <time>2015-06-08T21:33:55Z</time>
      </trkpt>
      <trkpt lat="57.656222987286" lon="14.672319394445">
        <ele>314</ele>
        <time>2015-06-08T21:33:56Z</time>
      </trkpt>
      <trkpt lat="57.656229189892" lon="14.672302127731">
        <ele>313.8</ele>
        <time>2015-06-08T21:33:57Z</time>
      </trkpt>
      <trkpt lat="57.656246037511" lon="14.672272455805">
        <ele>313.6</ele>
        <time>2015-06-08T21:33:58Z</time>
      </trkpt>
      <trkpt lat="57.656254670868" lon="14.672250411408">
        <ele>313.6</ele>
        <time>2015-06-08T21:33:59Z</time>
      </trkpt>
      <trkpt lat="57.656265567338" lon="14.672226858269">
        <ele>314</ele>
        <time>2015-06-08T21:34:00Z</time>
      </trkpt>
      <trkpt lat="57.656276966722" lon="14.672211351754">
        <ele>314.2</ele>
        <time>2015-06-08T21:34:01Z</time>
      </trkpt>
      <trkpt lat="57.656285348622" lon="14.672185786959">
        <ele>314</ele>
        <time>2015-06-08T21:34:02Z</time>
      </trkpt>
      <trkpt lat="57.656291299771" lon="14.672176315412">
        <ele>313.6</ele>
        <time>2015-06-08T21:34:03Z</time>
      </trkpt>
      <trkpt lat="57.656299011119" lon="14.672157456137">
        <ele>313.6</ele>
        <time>2015-06-08T21:34:04Z</time>
      </trkpt>
      <trkpt lat="57.656307728295" lon="14.672141530527">
        <ele>313.4</ele>
        <time>2015-06-08T21:34:05Z</time>
      </trkpt>
      <trkpt lat="57.656310745779" lon="14.67212786803">
        <ele>313.4</ele>
        <time>2015-06-08T21:34:06Z</time>
      </trkpt>
      <trkpt lat="57.656323318629" lon="14.672109679307">
        <ele>313.2</ele>
        <time>2015-06-08T21:34:07Z</time>
      </trkpt>
      <trkpt lat="57.656329269778" lon="14.672099956303">
        <ele>313</ele>
        <time>2015-06-08T21:34:08Z</time>
      </trkpt>
      <trkpt lat="57.656338238411" lon="14.672073218042">
        <ele>312.6</ele>
        <time>2015-06-08T21:34:09Z</time>
      </trkpt>
      <trkpt lat="57.656349302519" lon="14.672047150333">
        <ele>312.8</ele>
        <time>2015-06-08T21:34:10Z</time>
      </trkpt>
      <trkpt lat="57.656357768238" lon="14.672024519203">
        <ele>312.8</ele>
        <time>2015-06-08T21:34:11Z</time>
      </trkpt>
      <trkpt lat="57.656373945305" lon="14.671998116218">
        <ele>312.4</ele>
        <time>2015-06-08T21:34:12Z</time>
      </trkpt>
      <trkpt lat="57.656383668309" lon="14.671976574735">
        <ele>312.6</ele>
        <time>2015-06-08T21:34:13Z</time>
      </trkpt>
      <trkpt lat="57.656399845376" lon="14.671947321904">
        <ele>312.6</ele>
        <time>2015-06-08T21:34:14Z</time>
      </trkpt>
      <trkpt lat="57.656410322751" lon="14.671927708258">
        <ele>312.8</ele>
        <time>2015-06-08T21:34:15Z</time>
      </trkpt>
      <trkpt lat="57.656419207565" lon="14.671906669689">
        <ele>312.4</ele>
        <time>2015-06-08T21:34:16Z</time>
      </trkpt>
      <trkpt lat="57.656435468451" lon="14.671870040786">
        <ele>312.4</ele>
        <time>2015-06-08T21:34:17Z</time>
      </trkpt>
      <trkpt lat="57.656450388233" lon="14.671838608661">
        <ele>312.4</ele>
        <time>2015-06-08T21:34:18Z</time>
      </trkpt>
      <trkpt lat="57.656466732938" lon="14.671807595631">
        <ele>312.4</ele>
        <time>2015-06-08T21:34:19Z</time>
      </trkpt>
      <trkpt lat="57.656480646892" lon="14.671774319488">
        <ele>312.6</ele>
        <time>2015-06-08T21:34:20Z</time>
      </trkpt>
      <trkpt lat="57.656494812303" lon="14.671737103852">
        <ele>312.6</ele>
        <time>2015-06-08T21:34:21Z</time>
      </trkpt>
      <trkpt lat="57.656507971886" lon="14.671704246804">
        <ele>312.6</ele>
        <time>2015-06-08T21:34:22Z</time>
      </trkpt>
      <trkpt lat="57.656527082618" lon="14.67166770172">
        <ele>312.6</ele>
        <time>2015-06-08T21:34:23Z</time>
      </trkpt>
      <trkpt lat="57.656541918581" lon="14.671630569903">
        <ele>312.6</ele>
        <time>2015-06-08T21:34:24Z</time>
      </trkpt>
      <trkpt lat="57.656554910526" lon="14.671593689543">
        <ele>312.8</ele>
        <time>2015-06-08T21:34:25Z</time>
      </trkpt>
      <trkpt lat="57.656569495032" lon="14.671553540242">
        <ele>313</ele>
        <time>2015-06-08T21:34:26Z</time>
      </trkpt>
      <trkpt lat="57.656584330995" lon="14.671515318778">
        <ele>313</ele>
        <time>2015-06-08T21:34:27Z</time>
      </trkpt>
      <trkpt lat="57.656596820026" lon="14.671473576916">
        <ele>313.2</ele>
        <time>2015-06-08T21:34:28Z</time>
      </trkpt>
      <trkpt lat="57.656607129763" lon="14.671429236665">
        <ele>313</ele>
        <time>2015-06-08T21:34:29Z</time>
      </trkpt>
      <trkpt lat="57.656617942414" lon="14.671382800939">
        <ele>313.2</ele>
        <time>2015-06-08T21:34:30Z</time>
      </trkpt>
      <trkpt lat="57.656626156676" lon="14.671343070733">
        <ele>313</ele>
        <time>2015-06-08T21:34:31Z</time>
      </trkpt>
      <trkpt lat="57.656634454757" lon="14.671305352183">
        <ele>313</ele>
        <time>2015-06-08T21:34:32Z</time>
      </trkpt>
      <trkpt lat="57.656640489725" lon="14.671264029416">
        <ele>313.2</ele>
        <time>2015-06-08T21:34:33Z</time>
      </trkpt>
      <trkpt lat="57.656646692331" lon="14.671225640314">
        <ele>313.4</ele>
        <time>2015-06-08T21:34:34Z</time>
      </trkpt>
      <trkpt lat="57.656652392023" lon="14.671183144081">
        <ele>313.4</ele>
        <time>2015-06-08T21:34:35Z</time>
      </trkpt>
      <trkpt lat="57.656658259353" lon="14.671140983124">
        <ele>313.6</ele>
        <time>2015-06-08T21:34:36Z</time>
      </trkpt>
      <trkpt lat="57.65666270176" lon="14.671099995633">
        <ele>313.8</ele>
        <time>2015-06-08T21:34:37Z</time>
      </trkpt>
      <trkpt lat="57.656667898538" lon="14.671051799708">
        <ele>314</ele>
        <time>2015-06-08T21:34:38Z</time>
      </trkpt>
      <trkpt lat="57.656672676221" lon="14.671007543276">
        <ele>314.2</ele>
        <time>2015-06-08T21:34:39Z</time>
      </trkpt>
      <trkpt lat="57.656678040637" lon="14.67096194574">
        <ele>314.4</ele>
        <time>2015-06-08T21:34:40Z</time>
      </trkpt>
      <trkpt lat="57.65668198013" lon="14.670914420367">
        <ele>314.6</ele>
        <time>2015-06-08T21:34:41Z</time>
      </trkpt>
      <trkpt lat="57.656688518012" lon="14.67087393579">
        <ele>314.4</ele>
        <time>2015-06-08T21:34:42Z</time>
      </trkpt>
      <trkpt lat="57.656696732274" lon="14.670835714326">
        <ele>314.2</ele>
        <time>2015-06-08T21:34:43Z</time>
      </trkpt>
      <trkpt lat="57.656702767242" lon="14.670799253061">
        <ele>314.2</ele>
        <time>2015-06-08T21:34:44Z</time>
      </trkpt>
      <trkpt lat="57.656708718391" lon="14.670757846475">
        <ele>314</ele>
        <time>2015-06-08T21:34:45Z</time>
      </trkpt>
      <trkpt lat="57.656714334264" lon="14.670715769337">
        <ele>314</ele>
        <time>2015-06-08T21:34:46Z</time>
      </trkpt>
      <trkpt lat="57.656719614861" lon="14.670672434914">
        <ele>313.8</ele>
        <time>2015-06-08T21:34:47Z</time>
      </trkpt>
      <trkpt lat="57.656725901286" lon="14.670629268129">
        <ele>313.8</ele>
        <time>2015-06-08T21:34:48Z</time>
      </trkpt>
      <trkpt lat="57.656733193539" lon="14.670589118828">
        <ele>313.8</ele>
        <time>2015-06-08T21:34:49Z</time>
      </trkpt>
      <trkpt lat="57.656739396145" lon="14.670551148821">
        <ele>313.8</ele>
        <time>2015-06-08T21:34:50Z</time>
      </trkpt>
      <trkpt lat="57.656745263475" lon="14.670507982036">
        <ele>313.6</ele>
        <time>2015-06-08T21:34:51Z</time>
      </trkpt>
      <trkpt lat="57.656750208796" lon="14.670467832735">
        <ele>313.4</ele>
        <time>2015-06-08T21:34:52Z</time>
      </trkpt>
      <trkpt lat="57.656757501049" lon="14.670427012882">
        <ele>313.2</ele>
        <time>2015-06-08T21:34:53Z</time>
      </trkpt>
      <trkpt lat="57.656765296216" lon="14.670389210513">
        <ele>313</ele>
        <time>2015-06-08T21:34:54Z</time>
      </trkpt>
      <trkpt lat="57.656770912089" lon="14.670348809755">
        <ele>313</ele>
        <time>2015-06-08T21:34:55Z</time>
      </trkpt>
      <trkpt lat="57.656775270677" lon="14.670301284382">
        <ele>313</ele>
        <time>2015-06-08T21:34:56Z</time>
      </trkpt>
      <trkpt lat="57.656779293989" lon="14.670256608855">
        <ele>313</ele>
        <time>2015-06-08T21:34:57Z</time>
      </trkpt>
      <trkpt lat="57.656784909862" lon="14.6702109275">
        <ele>312.8</ele>
        <time>2015-06-08T21:34:58Z</time>
      </trkpt>
      <trkpt lat="57.656791866839" lon="14.670159881729">
        <ele>313</ele>
        <time>2015-06-08T21:34:59Z</time>
      </trkpt>
      <trkpt lat="57.656797901807" lon="14.670114703288">
        <ele>313</ele>
        <time>2015-06-08T21:35:00Z</time>
      </trkpt>
      <trkpt lat="57.65680351768" lon="14.670067764648">
        <ele>313.2</ele>
        <time>2015-06-08T21:35:01Z</time>
      </trkpt>
      <trkpt lat="57.656807876268" lon="14.670018814352">
        <ele>313</ele>
        <time>2015-06-08T21:35:02Z</time>
      </trkpt>
      <trkpt lat="57.656816677263" lon="14.66995611774">
        <ele>313</ele>
        <time>2015-06-08T21:35:03Z</time>
      </trkpt>
      <trkpt lat="57.656824053335" lon="14.669901132476">
        <ele>313</ele>
        <time>2015-06-08T21:35:04Z</time>
      </trkpt>
      <trkpt lat="57.656831429407" lon="14.66984296209">
        <ele>313.4</ele>
        <time>2015-06-08T21:35:05Z</time>
      </trkpt>
      <trkpt lat="57.656838134927" lon="14.669795604355">
        <ele>313.4</ele>
        <time>2015-06-08T21:35:06Z</time>
      </trkpt>
      <trkpt lat="57.656843415524" lon="14.669757550529">
        <ele>313.4</ele>
        <time>2015-06-08T21:35:07Z</time>
      </trkpt>
      <trkpt lat="57.656849115216" lon="14.669714299925">
        <ele>313.4</ele>
        <time>2015-06-08T21:35:08Z</time>
      </trkpt>
      <trkpt lat="57.656854982546" lon="14.669665936362">
        <ele>313.4</ele>
        <time>2015-06-08T21:35:09Z</time>
      </trkpt>
      <trkpt lat="57.656860598419" lon="14.669619081541">
        <ele>313.4</ele>
        <time>2015-06-08T21:35:10Z</time>
      </trkpt>
      <trkpt lat="57.656868728862" lon="14.669555546739">
        <ele>313.2</ele>
        <time>2015-06-08T21:35:11Z</time>
      </trkpt>
      <trkpt lat="57.656875099106" lon="14.669501232027">
        <ele>313.2</ele>
        <time>2015-06-08T21:35:12Z</time>
      </trkpt>
      <trkpt lat="57.656881385531" lon="14.669453539016">
        <ele>313</ele>
        <time>2015-06-08T21:35:13Z</time>
      </trkpt>
      <trkpt lat="57.656881804626" lon="14.669414227905">
        <ele>313</ele>
        <time>2015-06-08T21:35:14Z</time>
      </trkpt>
      <trkpt lat="57.656873003631" lon="14.669374497699">
        <ele>313.2</ele>
        <time>2015-06-08T21:35:15Z</time>
      </trkpt>
      <trkpt lat="57.656856658926" lon="14.669347424162">
        <ele>313.4</ele>
        <time>2015-06-08T21:35:16Z</time>
      </trkpt>
      <trkpt lat="57.656836793823" lon="14.66932998981">
        <ele>313.4</ele>
        <time>2015-06-08T21:35:17Z</time>
      </trkpt>
      <trkpt lat="57.656813156865" lon="14.669316997865">
        <ele>313.4</ele>
        <time>2015-06-08T21:35:18Z</time>
      </trkpt>
      <trkpt lat="57.656788933174" lon="14.669305263205">
        <ele>312.8</ele>
        <time>2015-06-08T21:35:19Z</time>
      </trkpt>
      <trkpt lat="57.656764541845" lon="14.669294869649">
        <ele>312.6</ele>
        <time>2015-06-08T21:35:20Z</time>
      </trkpt>
      <trkpt lat="57.656739563783" lon="14.669284224636">
        <ele>312.6</ele>
        <time>2015-06-08T21:35:21Z</time>
      </trkpt>
      <trkpt lat="57.656717267929" lon="14.669274753089">
        <ele>312.6</ele>
        <time>2015-06-08T21:35:22Z</time>
      </trkpt>
      <trkpt lat="57.656693966247" lon="14.669264191895">
        <ele>312.4</ele>
        <time>2015-06-08T21:35:23Z</time>
      </trkpt>
      <trkpt lat="57.656672927678" lon="14.669254636529">
        <ele>312.4</ele>
        <time>2015-06-08T21:35:24Z</time>
      </trkpt>
      <trkpt lat="57.656650212729" lon="14.66925371452">
        <ele>312</ele>
        <time>2015-06-08T21:35:25Z</time>
      </trkpt>
      <trkpt lat="57.656626156676" lon="14.669256145271">
        <ele>312</ele>
        <time>2015-06-08T21:35:26Z</time>
      </trkpt>
      <trkpt lat="57.656606459211" lon="14.669264191895">
        <ele>312</ele>
        <time>2015-06-08T21:35:27Z</time>
      </trkpt>
      <trkpt lat="57.656586845565" lon="14.669291600708">
        <ele>312</ele>
        <time>2015-06-08T21:35:28Z</time>
      </trkpt>
      <trkpt lat="57.656577457837" lon="14.669327978154">
        <ele>312</ele>
        <time>2015-06-08T21:35:29Z</time>
      </trkpt>
      <trkpt lat="57.656576284371" lon="14.669367205446">
        <ele>312.2</ele>
        <time>2015-06-08T21:35:30Z</time>
      </trkpt>
      <trkpt lat="57.656572344878" lon="14.669410875145">
        <ele>312.4</ele>
        <time>2015-06-08T21:35:31Z</time>
      </trkpt>
      <trkpt lat="57.656564382073" lon="14.669449431885">
        <ele>312.4</ele>
        <time>2015-06-08T21:35:32Z</time>
      </trkpt>
      <trkpt lat="57.656555832535" lon="14.669497711629">
        <ele>312.6</ele>
        <time>2015-06-08T21:35:33Z</time>
      </trkpt>
      <trkpt lat="57.656550300481" lon="14.669541381328">
        <ele>312.4</ele>
        <time>2015-06-08T21:35:34Z</time>
      </trkpt>
      <trkpt lat="57.65654535516" lon="14.669589996348">
        <ele>312.8</ele>
        <time>2015-06-08T21:35:35Z</time>
      </trkpt>
      <trkpt lat="57.656539571649" lon="14.669637186445">
        <ele>313</ele>
        <time>2015-06-08T21:35:36Z</time>
      </trkpt>
      <trkpt lat="57.656534039595" lon="14.669679850316">
        <ele>313.2</ele>
        <time>2015-06-08T21:35:37Z</time>
      </trkpt>
      <trkpt lat="57.656529261912" lon="14.669723855291">
        <ele>313.4</ele>
        <time>2015-06-08T21:35:38Z</time>
      </trkpt>
      <trkpt lat="57.65652440041" lon="14.669766100067">
        <ele>313.6</ele>
        <time>2015-06-08T21:35:39Z</time>
      </trkpt>
      <trkpt lat="57.656518616899" lon="14.669804992083">
        <ele>313.8</ele>
        <time>2015-06-08T21:35:40Z</time>
      </trkpt>
      <trkpt lat="57.656511576103" lon="14.669843548823">
        <ele>313.8</ele>
        <time>2015-06-08T21:35:41Z</time>
      </trkpt>
      <trkpt lat="57.656506714601" lon="14.669876238233">
        <ele>313.8</ele>
        <time>2015-06-08T21:35:42Z</time>
      </trkpt>
    </trkseg>
  </trk>
</gpx>